OAS152 SKBO-LEMD
Flight info
| Callsign | OAS152 |
|---|---|
| Flight time | N/A |
| Altitude | 31000 |
| Route | LOBUL UP533 CITRS/M082F310 DCT 20N055W 23N050W 27N040W 32N030W 3530N02000W DCT LUTAK/N0483F310 DCT RIVRO DCT BARDI M191 RIDAV |
| Aircraft | B77W/H-SDE1E2E3FGHIJ2J3J4J5M1RWXY/LB1D1 |
Departure
| Time | N/A |
|---|---|
| Airport | El Dorado International Airport (SKBO) |
Arrival
| Time | 2026-05-01 14:50 |
|---|---|
| Airport | Adolfo Suárez Madrid–Barajas Airport (LEMD) |
| Time | Latitude | Longitude | Altitude | Speed | Heading |
|---|---|---|---|---|---|
| 2026-05-01 07:23 | 18.90506 | -57.22301 | 5385 ft | 349 kts | 62° |
| 2026-05-01 07:23 | 18.92765 | -57.17798 | 5383 ft | 349 kts | 62° |
| 2026-05-01 07:24 | 18.93902 | -57.15531 | 5380 ft | 349 kts | 62° |
| 2026-05-01 07:24 | 18.95037 | -57.13266 | 5378 ft | 349 kts | 62° |
| 2026-05-01 07:24 | 18.96173 | -57.11000 | 5380 ft | 349 kts | 62° |
| 2026-05-01 07:24 | 18.97307 | -57.08736 | 5384 ft | 349 kts | 62° |
| 2026-05-01 07:25 | 18.98442 | -57.06470 | 5376 ft | 349 kts | 62° |
| 2026-05-01 07:25 | 18.99575 | -57.04205 | 5382 ft | 349 kts | 62° |
| 2026-05-01 07:25 | 19.00704 | -57.01949 | 5381 ft | 349 kts | 62° |
| 2026-05-01 07:25 | 19.01793 | -56.99770 | 5383 ft | 349 kts | 62° |
| 2026-05-01 07:26 | 19.02928 | -56.97501 | 5386 ft | 349 kts | 62° |
| 2026-05-01 07:26 | 19.04062 | -56.95232 | 5380 ft | 349 kts | 62° |
| 2026-05-01 07:26 | 19.05195 | -56.92965 | 5381 ft | 349 kts | 62° |
| 2026-05-01 07:26 | 19.06330 | -56.90690 | 5388 ft | 349 kts | 62° |
| 2026-05-01 07:27 | 19.07463 | -56.88422 | 5386 ft | 349 kts | 62° |
| 2026-05-01 07:27 | 19.08596 | -56.86149 | 5381 ft | 349 kts | 62° |
| 2026-05-01 07:27 | 19.09730 | -56.83876 | 5387 ft | 349 kts | 62° |
| 2026-05-01 07:27 | 19.10847 | -56.81636 | 5382 ft | 349 kts | 62° |
| 2026-05-01 07:28 | 19.11996 | -56.79331 | 5386 ft | 350 kts | 62° |
| 2026-05-01 07:28 | 19.13114 | -56.77087 | 5383 ft | 350 kts | 62° |
| 2026-05-01 07:28 | 19.14247 | -56.74812 | 5379 ft | 350 kts | 62° |
| 2026-05-01 07:28 | 19.15380 | -56.72538 | 5386 ft | 349 kts | 62° |
| 2026-05-01 07:29 | 19.16511 | -56.70266 | 5384 ft | 349 kts | 62° |
| 2026-05-01 07:29 | 19.17643 | -56.67989 | 5383 ft | 349 kts | 63° |
| 2026-05-01 07:29 | 19.18773 | -56.65717 | 5383 ft | 349 kts | 62° |
| 2026-05-01 07:29 | 19.19903 | -56.63443 | 5386 ft | 349 kts | 62° |
| 2026-05-01 07:30 | 19.21035 | -56.61166 | 5386 ft | 349 kts | 63° |
| 2026-05-01 07:30 | 19.22166 | -56.58888 | 5388 ft | 349 kts | 63° |
| 2026-05-01 07:30 | 19.23295 | -56.56615 | 5380 ft | 349 kts | 63° |
| 2026-05-01 07:30 | 19.24426 | -56.54337 | 5380 ft | 349 kts | 63° |
| 2026-05-01 07:31 | 19.25554 | -56.52063 | 5391 ft | 349 kts | 63° |
| 2026-05-01 07:31 | 19.28940 | -56.45233 | 5384 ft | 350 kts | 63° |
| 2026-05-01 07:32 | 19.31197 | -56.40674 | 5391 ft | 350 kts | 63° |
| 2026-05-01 07:32 | 19.31944 | -56.39166 | 5390 ft | 350 kts | 63° |
| 2026-05-01 07:33 | 19.34570 | -56.33859 | 5388 ft | 350 kts | 63° |
| 2026-05-01 07:33 | 19.35333 | -56.32315 | 5391 ft | 350 kts | 63° |
| 2026-05-01 07:33 | 19.37956 | -56.27008 | 5386 ft | 350 kts | 63° |
| 2026-05-01 07:34 | 19.38718 | -56.25465 | 5384 ft | 350 kts | 63° |
| 2026-05-01 07:34 | 19.40974 | -56.20894 | 5389 ft | 350 kts | 63° |
| 2026-05-01 07:34 | 19.42101 | -56.18609 | 5384 ft | 350 kts | 63° |
| 2026-05-01 07:35 | 19.43227 | -56.16325 | 5384 ft | 350 kts | 63° |
| 2026-05-01 07:35 | 19.44339 | -56.14069 | 5387 ft | 349 kts | 63° |
| 2026-05-01 07:35 | 19.45464 | -56.11786 | 5387 ft | 349 kts | 63° |
| 2026-05-01 07:35 | 19.46588 | -56.09504 | 5388 ft | 349 kts | 63° |
| 2026-05-01 07:36 | 19.47712 | -56.07221 | 5392 ft | 349 kts | 63° |
| 2026-05-01 07:36 | 19.48837 | -56.04936 | 5386 ft | 349 kts | 63° |
| 2026-05-01 07:36 | 19.49959 | -56.02654 | 5395 ft | 349 kts | 63° |
| 2026-05-01 07:36 | 19.51082 | -56.00370 | 5391 ft | 350 kts | 63° |
| 2026-05-01 07:37 | 19.53288 | -55.95881 | 5391 ft | 350 kts | 63° |
| 2026-05-01 07:37 | 19.54412 | -55.93593 | 5389 ft | 350 kts | 63° |
| 2026-05-01 07:37 | 19.55537 | -55.91303 | 5390 ft | 350 kts | 63° |
| 2026-05-01 07:38 | 19.56661 | -55.89012 | 5392 ft | 350 kts | 63° |
| 2026-05-01 07:38 | 19.57782 | -55.86728 | 5388 ft | 350 kts | 63° |
| 2026-05-01 07:38 | 19.60026 | -55.82149 | 5395 ft | 349 kts | 63° |
| 2026-05-01 07:39 | 19.61133 | -55.79890 | 5383 ft | 350 kts | 63° |
| 2026-05-01 07:39 | 19.62270 | -55.77570 | 5388 ft | 349 kts | 63° |
| 2026-05-01 07:39 | 19.64496 | -55.73021 | 5389 ft | 350 kts | 63° |
| 2026-05-01 07:40 | 19.65615 | -55.70735 | 5390 ft | 350 kts | 63° |
| 2026-05-01 07:40 | 19.66735 | -55.68444 | 5386 ft | 350 kts | 63° |
| 2026-05-01 07:40 | 19.67855 | -55.66153 | 5387 ft | 350 kts | 63° |
| 2026-05-01 07:40 | 19.68975 | -55.63861 | 5389 ft | 350 kts | 63° |
| 2026-05-01 07:41 | 19.70096 | -55.61566 | 5393 ft | 350 kts | 63° |
| 2026-05-01 07:41 | 19.71218 | -55.59268 | 5392 ft | 351 kts | 63° |
| 2026-05-01 07:41 | 19.73464 | -55.54666 | 5391 ft | 351 kts | 63° |
| 2026-05-01 07:42 | 19.74587 | -55.52362 | 5391 ft | 351 kts | 63° |
| 2026-05-01 07:42 | 19.75711 | -55.50057 | 5393 ft | 351 kts | 63° |
| 2026-05-01 07:42 | 19.76833 | -55.47755 | 5390 ft | 351 kts | 63° |
| 2026-05-01 07:42 | 19.77957 | -55.45448 | 5392 ft | 351 kts | 63° |
| 2026-05-01 07:43 | 19.79077 | -55.43147 | 5390 ft | 351 kts | 63° |
| 2026-05-01 07:43 | 19.80197 | -55.40845 | 5388 ft | 351 kts | 63° |
| 2026-05-01 07:43 | 19.82437 | -55.36240 | 5392 ft | 351 kts | 63° |
| 2026-05-01 07:44 | 19.84675 | -55.31636 | 5397 ft | 350 kts | 63° |
| 2026-05-01 07:44 | 19.86909 | -55.27035 | 5394 ft | 350 kts | 63° |
| 2026-05-01 07:45 | 19.88011 | -55.24765 | 5395 ft | 350 kts | 63° |
| 2026-05-01 07:45 | 19.89130 | -55.22457 | 5391 ft | 351 kts | 63° |
| 2026-05-01 07:45 | 19.90249 | -55.20150 | 5392 ft | 351 kts | 63° |
| 2026-05-01 07:45 | 19.91368 | -55.17841 | 5392 ft | 351 kts | 63° |
| 2026-05-01 07:46 | 19.92485 | -55.15535 | 5391 ft | 351 kts | 63° |
| 2026-05-01 07:46 | 19.93604 | -55.13225 | 5392 ft | 352 kts | 63° |
| 2026-05-01 07:46 | 19.95842 | -55.08602 | 5391 ft | 352 kts | 63° |
| 2026-05-01 07:47 | 19.96960 | -55.06290 | 5391 ft | 352 kts | 63° |
| 2026-05-01 07:47 | 19.98081 | -55.03972 | 5391 ft | 352 kts | 63° |
| 2026-05-01 07:47 | 19.99199 | -55.01659 | 5392 ft | 352 kts | 63° |
| 2026-05-01 07:47 | 20.00303 | -54.99461 | 5390 ft | 352 kts | 59° |
| 2026-05-01 07:48 | 20.02973 | -54.95105 | 5392 ft | 351 kts | 56° |
| 2026-05-01 07:48 | 20.04345 | -54.92953 | 5393 ft | 352 kts | 56° |
| 2026-05-01 07:48 | 20.05717 | -54.90799 | 5392 ft | 352 kts | 56° |
| 2026-05-01 07:49 | 20.07085 | -54.88642 | 5389 ft | 352 kts | 56° |
| 2026-05-01 07:49 | 20.09793 | -54.84344 | 5387 ft | 352 kts | 56° |
| 2026-05-01 07:49 | 20.11151 | -54.82182 | 5391 ft | 351 kts | 56° |
| 2026-05-01 07:50 | 20.12507 | -54.80018 | 5385 ft | 351 kts | 56° |
| 2026-05-01 07:50 | 20.15209 | -54.75696 | 5389 ft | 351 kts | 56° |
| 2026-05-01 07:50 | 20.16559 | -54.73535 | 5386 ft | 351 kts | 56° |
| 2026-05-01 07:51 | 20.17909 | -54.71373 | 5388 ft | 350 kts | 56° |
| 2026-05-01 07:51 | 20.19258 | -54.69211 | 5390 ft | 350 kts | 56° |
| 2026-05-01 07:51 | 20.20605 | -54.67051 | 5389 ft | 350 kts | 56° |
| 2026-05-01 07:52 | 20.23300 | -54.62727 | 5385 ft | 350 kts | 56° |
| 2026-05-01 07:52 | 20.24648 | -54.60564 | 5387 ft | 351 kts | 56° |
| 2026-05-01 07:52 | 20.25994 | -54.58401 | 5388 ft | 351 kts | 56° |
| 2026-05-01 07:53 | 20.28693 | -54.54065 | 5390 ft | 351 kts | 55° |
| 2026-05-01 07:53 | 20.30041 | -54.51898 | 5389 ft | 351 kts | 56° |
| 2026-05-01 07:53 | 20.31388 | -54.49733 | 5389 ft | 351 kts | 55° |
| 2026-05-01 07:53 | 20.32736 | -54.47563 | 5389 ft | 351 kts | 56° |
| 2026-05-01 07:54 | 20.35433 | -54.43222 | 5388 ft | 351 kts | 55° |
| 2026-05-01 07:55 | 20.39460 | -54.36734 | 5387 ft | 352 kts | 55° |
| 2026-05-01 07:55 | 20.42158 | -54.32382 | 5387 ft | 352 kts | 56° |
| 2026-05-01 07:56 | 20.46205 | -54.25850 | 5389 ft | 351 kts | 56° |
| 2026-05-01 07:56 | 20.48897 | -54.21500 | 5387 ft | 351 kts | 56° |
| 2026-05-01 07:57 | 20.50244 | -54.19323 | 5388 ft | 351 kts | 55° |
| 2026-05-01 07:57 | 20.52933 | -54.14972 | 5390 ft | 351 kts | 55° |
| 2026-05-01 07:58 | 20.55622 | -54.10619 | 5381 ft | 352 kts | 56° |
| 2026-05-01 07:58 | 20.58313 | -54.06260 | 5392 ft | 351 kts | 56° |
| 2026-05-01 07:59 | 20.61001 | -54.01903 | 5388 ft | 351 kts | 56° |
| 2026-05-01 07:59 | 20.63619 | -53.97657 | 5391 ft | 351 kts | 56° |
| 2026-05-01 08:00 | 20.68990 | -53.88928 | 5395 ft | 351 kts | 56° |
| 2026-05-01 08:01 | 20.73020 | -53.82373 | 5382 ft | 352 kts | 56° |
| 2026-05-01 08:01 | 20.74366 | -53.80183 | 5391 ft | 352 kts | 55° |
| 2026-05-01 08:01 | 20.75707 | -53.78000 | 5389 ft | 352 kts | 56° |
| 2026-05-01 08:02 | 20.78394 | -53.73624 | 5382 ft | 352 kts | 56° |
| 2026-05-01 08:02 | 20.79733 | -53.71440 | 5391 ft | 352 kts | 55° |
| 2026-05-01 08:03 | 20.82415 | -53.67066 | 5390 ft | 352 kts | 56° |
| 2026-05-01 08:03 | 20.83757 | -53.64876 | 5382 ft | 352 kts | 55° |
| 2026-05-01 08:03 | 20.86435 | -53.60504 | 5393 ft | 352 kts | 56° |
| 2026-05-01 08:04 | 20.89135 | -53.56091 | 5392 ft | 357 kts | 56° |
| 2026-05-01 08:04 | 20.91860 | -53.51634 | 5387 ft | 358 kts | 56° |
| 2026-05-01 08:05 | 20.94565 | -53.47205 | 5383 ft | 357 kts | 56° |
| 2026-05-01 08:05 | 20.95922 | -53.44982 | 5383 ft | 356 kts | 56° |
| 2026-05-01 08:05 | 20.97278 | -53.42761 | 5393 ft | 356 kts | 56° |
| 2026-05-01 08:06 | 20.99982 | -53.38328 | 5386 ft | 355 kts | 56° |
| 2026-05-01 08:06 | 21.02672 | -53.33913 | 5389 ft | 355 kts | 56° |
| 2026-05-01 08:07 | 21.05367 | -53.29486 | 5389 ft | 355 kts | 56° |
| 2026-05-01 08:07 | 21.08070 | -53.25046 | 5391 ft | 356 kts | 56° |
| 2026-05-01 08:08 | 21.09422 | -53.22822 | 5390 ft | 357 kts | 56° |
| 2026-05-01 08:08 | 21.12132 | -53.18363 | 5392 ft | 357 kts | 56° |
| 2026-05-01 08:09 | 21.14828 | -53.13926 | 5387 ft | 358 kts | 56° |
| 2026-05-01 08:09 | 21.16184 | -53.11691 | 5380 ft | 357 kts | 56° |
| 2026-05-01 08:09 | 21.17537 | -53.09460 | 5387 ft | 356 kts | 56° |
| 2026-05-01 08:10 | 21.20241 | -53.05001 | 5392 ft | 357 kts | 56° |
| 2026-05-01 08:10 | 21.22944 | -53.00539 | 5382 ft | 356 kts | 56° |
| 2026-05-01 08:11 | 21.25591 | -52.96166 | 5391 ft | 356 kts | 56° |
| 2026-05-01 08:11 | 21.28287 | -52.91710 | 5389 ft | 357 kts | 56° |
| 2026-05-01 08:12 | 21.30972 | -52.87268 | 5389 ft | 357 kts | 56° |
| 2026-05-01 08:12 | 21.32320 | -52.85035 | 5396 ft | 357 kts | 56° |
| 2026-05-01 08:12 | 21.35026 | -52.80553 | 5393 ft | 358 kts | 56° |
| 2026-05-01 08:13 | 21.36379 | -52.78311 | 5384 ft | 358 kts | 56° |
| 2026-05-01 08:13 | 21.37731 | -52.76069 | 5383 ft | 357 kts | 56° |
| 2026-05-01 08:13 | 21.40427 | -52.71595 | 5397 ft | 357 kts | 56° |
| 2026-05-01 08:14 | 21.41775 | -52.69358 | 5396 ft | 357 kts | 56° |
| 2026-05-01 08:14 | 21.43124 | -52.67118 | 5397 ft | 358 kts | 56° |
| 2026-05-01 08:14 | 21.44474 | -52.64875 | 5389 ft | 358 kts | 56° |
| 2026-05-01 08:14 | 21.45828 | -52.62624 | 5391 ft | 358 kts | 56° |
| 2026-05-01 08:15 | 21.47178 | -52.60378 | 5396 ft | 358 kts | 56° |
| 2026-05-01 08:15 | 21.49865 | -52.55907 | 5391 ft | 358 kts | 56° |
| 2026-05-01 08:15 | 21.51215 | -52.53660 | 5389 ft | 358 kts | 56° |
| 2026-05-01 08:16 | 21.52567 | -52.51408 | 5386 ft | 358 kts | 56° |
| 2026-05-01 08:16 | 21.53916 | -52.49161 | 5395 ft | 358 kts | 56° |
| 2026-05-01 08:16 | 21.55265 | -52.46911 | 5393 ft | 358 kts | 56° |
| 2026-05-01 08:16 | 21.56614 | -52.44662 | 5391 ft | 358 kts | 56° |
| 2026-05-01 08:17 | 21.57966 | -52.42407 | 5386 ft | 358 kts | 56° |
| 2026-05-01 08:17 | 21.59311 | -52.40161 | 5388 ft | 357 kts | 56° |
| 2026-05-01 08:17 | 21.60655 | -52.37917 | 5398 ft | 357 kts | 56° |
| 2026-05-01 08:17 | 21.61999 | -52.35673 | 5393 ft | 357 kts | 56° |
| 2026-05-01 08:18 | 21.63344 | -52.33425 | 5392 ft | 358 kts | 56° |
| 2026-05-01 08:18 | 21.66040 | -52.28916 | 5395 ft | 359 kts | 56° |
| 2026-05-01 08:19 | 21.68290 | -52.25152 | 5395 ft | 360 kts | 56° |
| 2026-05-01 08:19 | 21.69643 | -52.22886 | 5391 ft | 360 kts | 56° |
| 2026-05-01 08:19 | 21.70994 | -52.20623 | 5390 ft | 360 kts | 56° |
| 2026-05-01 08:19 | 21.72344 | -52.18361 | 5389 ft | 359 kts | 56° |
| 2026-05-01 08:20 | 21.73693 | -52.16100 | 5391 ft | 359 kts | 56° |
| 2026-05-01 08:20 | 21.75039 | -52.13842 | 5396 ft | 359 kts | 56° |
| 2026-05-01 08:20 | 21.76386 | -52.11583 | 5391 ft | 359 kts | 56° |
| 2026-05-01 08:20 | 21.77732 | -52.09324 | 5392 ft | 359 kts | 56° |
| 2026-05-01 08:21 | 21.79080 | -52.07059 | 5395 ft | 358 kts | 56° |
| 2026-05-01 08:21 | 21.80422 | -52.04805 | 5393 ft | 358 kts | 56° |
| 2026-05-01 08:21 | 21.81769 | -52.02541 | 5389 ft | 358 kts | 56° |
| 2026-05-01 08:21 | 21.83111 | -52.00285 | 5390 ft | 358 kts | 56° |
| 2026-05-01 08:22 | 21.84405 | -51.98109 | 5396 ft | 358 kts | 56° |
| 2026-05-01 08:22 | 21.85747 | -51.95851 | 5397 ft | 358 kts | 56° |
| 2026-05-01 08:22 | 21.87092 | -51.93587 | 5399 ft | 359 kts | 56° |
| 2026-05-01 08:22 | 21.88438 | -51.91321 | 5399 ft | 359 kts | 56° |
| 2026-05-01 08:23 | 21.89783 | -51.89055 | 5395 ft | 360 kts | 56° |
| 2026-05-01 08:23 | 21.91131 | -51.86783 | 5395 ft | 360 kts | 56° |
| 2026-05-01 08:23 | 21.92478 | -51.84511 | 5392 ft | 360 kts | 56° |
| 2026-05-01 08:23 | 21.93806 | -51.82270 | 5389 ft | 360 kts | 56° |
| 2026-05-01 08:24 | 21.95152 | -51.80000 | 5389 ft | 359 kts | 57° |
| 2026-05-01 08:24 | 21.96494 | -51.77733 | 5392 ft | 359 kts | 56° |
| 2026-05-01 08:24 | 21.97840 | -51.75460 | 5395 ft | 359 kts | 56° |
| 2026-05-01 08:24 | 21.99183 | -51.73191 | 5398 ft | 359 kts | 56° |
| 2026-05-01 08:25 | 22.00522 | -51.70927 | 5399 ft | 359 kts | 56° |
| 2026-05-01 08:25 | 22.01864 | -51.68657 | 5394 ft | 359 kts | 56° |
| 2026-05-01 08:25 | 22.03207 | -51.66385 | 5400 ft | 359 kts | 56° |
| 2026-05-01 08:25 | 22.04550 | -51.64112 | 5396 ft | 359 kts | 56° |
| 2026-05-01 08:26 | 22.05894 | -51.61837 | 5397 ft | 359 kts | 57° |
| 2026-05-01 08:26 | 22.07235 | -51.59564 | 5401 ft | 359 kts | 57° |
| 2026-05-01 08:26 | 22.08579 | -51.57287 | 5398 ft | 360 kts | 57° |
| 2026-05-01 08:26 | 22.09923 | -51.55008 | 5397 ft | 360 kts | 57° |
| 2026-05-01 08:27 | 22.11265 | -51.52732 | 5398 ft | 360 kts | 57° |
| 2026-05-01 08:27 | 22.12609 | -51.50452 | 5390 ft | 360 kts | 57° |
| 2026-05-01 08:27 | 22.13951 | -51.48173 | 5393 ft | 359 kts | 57° |
| 2026-05-01 08:27 | 22.15289 | -51.45900 | 5399 ft | 359 kts | 57° |
| 2026-05-01 08:28 | 22.16629 | -51.43623 | 5400 ft | 359 kts | 57° |
| 2026-05-01 08:28 | 22.17970 | -51.41345 | 5394 ft | 359 kts | 56° |
| 2026-05-01 08:28 | 22.19311 | -51.39065 | 5394 ft | 359 kts | 57° |
| 2026-05-01 08:28 | 22.20629 | -51.36822 | 5396 ft | 359 kts | 57° |
| 2026-05-01 08:29 | 22.21969 | -51.34542 | 5392 ft | 359 kts | 57° |
| 2026-05-01 08:29 | 22.23308 | -51.32262 | 5395 ft | 359 kts | 57° |
| 2026-05-01 08:29 | 22.24646 | -51.29984 | 5390 ft | 359 kts | 57° |
| 2026-05-01 08:29 | 22.25983 | -51.27704 | 5394 ft | 359 kts | 57° |
| 2026-05-01 08:30 | 22.27320 | -51.25425 | 5398 ft | 359 kts | 57° |
| 2026-05-01 08:30 | 22.28659 | -51.23142 | 5398 ft | 360 kts | 56° |
| 2026-05-01 08:30 | 22.29997 | -51.20858 | 5397 ft | 360 kts | 57° |
| 2026-05-01 08:30 | 22.31335 | -51.18575 | 5399 ft | 360 kts | 57° |
| 2026-05-01 08:31 | 22.32671 | -51.16293 | 5394 ft | 360 kts | 57° |
| 2026-05-01 08:31 | 22.34009 | -51.14006 | 5397 ft | 360 kts | 57° |
| 2026-05-01 08:31 | 22.35344 | -51.11725 | 5397 ft | 359 kts | 57° |
| 2026-05-01 08:31 | 22.36679 | -51.09442 | 5392 ft | 359 kts | 57° |
| 2026-05-01 08:32 | 22.38013 | -51.07160 | 5391 ft | 359 kts | 57° |
| 2026-05-01 08:32 | 22.39346 | -51.04879 | 5398 ft | 359 kts | 57° |
| 2026-05-01 08:32 | 22.40679 | -51.02595 | 5395 ft | 359 kts | 57° |
| 2026-05-01 08:32 | 22.42013 | -51.00311 | 5395 ft | 360 kts | 57° |
| 2026-05-01 08:33 | 22.43298 | -50.98108 | 5396 ft | 360 kts | 56° |
| 2026-05-01 08:33 | 22.44634 | -50.95819 | 5393 ft | 360 kts | 57° |
| 2026-05-01 08:33 | 22.45968 | -50.93533 | 5395 ft | 360 kts | 57° |
| 2026-05-01 08:33 | 22.47300 | -50.91246 | 5394 ft | 359 kts | 57° |
| 2026-05-01 08:34 | 22.48632 | -50.88957 | 5392 ft | 359 kts | 57° |
| 2026-05-01 08:34 | 22.49961 | -50.86674 | 5390 ft | 359 kts | 57° |
| 2026-05-01 08:34 | 22.51291 | -50.84389 | 5397 ft | 359 kts | 57° |
| 2026-05-01 08:34 | 22.52624 | -50.82099 | 5399 ft | 359 kts | 57° |
| 2026-05-01 08:35 | 22.53956 | -50.79808 | 5393 ft | 359 kts | 57° |
| 2026-05-01 08:35 | 22.55284 | -50.77523 | 5395 ft | 359 kts | 57° |
| 2026-05-01 08:35 | 22.56613 | -50.75236 | 5402 ft | 359 kts | 57° |
| 2026-05-01 08:35 | 22.57944 | -50.72945 | 5396 ft | 359 kts | 57° |
| 2026-05-01 08:36 | 22.59273 | -50.70654 | 5394 ft | 359 kts | 57° |
| 2026-05-01 08:36 | 22.60601 | -50.68365 | 5394 ft | 359 kts | 57° |
| 2026-05-01 08:36 | 22.61912 | -50.66105 | 5401 ft | 359 kts | 57° |
| 2026-05-01 08:36 | 22.63241 | -50.63813 | 5397 ft | 359 kts | 57° |
| 2026-05-01 08:37 | 22.64568 | -50.61524 | 5389 ft | 359 kts | 57° |
| 2026-05-01 08:37 | 22.65896 | -50.59231 | 5398 ft | 359 kts | 57° |
| 2026-05-01 08:37 | 22.67223 | -50.56940 | 5399 ft | 360 kts | 57° |
| 2026-05-01 08:37 | 22.68552 | -50.54643 | 5397 ft | 360 kts | 57° |
| 2026-05-01 08:38 | 22.69881 | -50.52345 | 5393 ft | 360 kts | 57° |
| 2026-05-01 08:38 | 22.71211 | -50.50044 | 5398 ft | 360 kts | 57° |
| 2026-05-01 08:38 | 22.72541 | -50.47743 | 5395 ft | 361 kts | 57° |
| 2026-05-01 08:38 | 22.73873 | -50.45437 | 5392 ft | 361 kts | 57° |
| 2026-05-01 08:39 | 22.75204 | -50.43133 | 5394 ft | 360 kts | 57° |
| 2026-05-01 08:39 | 22.76532 | -50.40831 | 5395 ft | 360 kts | 57° |
| 2026-05-01 08:39 | 22.77861 | -50.38528 | 5396 ft | 360 kts | 57° |
| 2026-05-01 08:39 | 22.79186 | -50.36230 | 5396 ft | 359 kts | 57° |
| 2026-05-01 08:40 | 22.81834 | -50.31635 | 5402 ft | 359 kts | 57° |
| 2026-05-01 08:40 | 22.83158 | -50.29337 | 5403 ft | 360 kts | 57° |
| 2026-05-01 08:40 | 22.84482 | -50.27036 | 5397 ft | 360 kts | 57° |
| 2026-05-01 08:41 | 22.85811 | -50.24726 | 5395 ft | 361 kts | 57° |
| 2026-05-01 08:41 | 22.87121 | -50.22448 | 5394 ft | 361 kts | 57° |
| 2026-05-01 08:41 | 22.88468 | -50.20106 | 5396 ft | 361 kts | 57° |
| 2026-05-01 08:41 | 22.89798 | -50.17792 | 5392 ft | 361 kts | 57° |
| 2026-05-01 08:42 | 22.91108 | -50.15510 | 5394 ft | 361 kts | 57° |
| 2026-05-01 08:42 | 22.92433 | -50.13201 | 5394 ft | 361 kts | 57° |
| 2026-05-01 08:42 | 22.93762 | -50.10886 | 5398 ft | 361 kts | 57° |
| 2026-05-01 08:42 | 22.95087 | -50.08576 | 5395 ft | 360 kts | 57° |
| 2026-05-01 08:43 | 22.96411 | -50.06267 | 5391 ft | 360 kts | 57° |
| 2026-05-01 08:43 | 22.97732 | -50.03962 | 5394 ft | 360 kts | 57° |
| 2026-05-01 08:43 | 22.99054 | -50.01653 | 5400 ft | 360 kts | 57° |
| 2026-05-01 08:43 | 23.00298 | -49.99416 | 5397 ft | 361 kts | 60° |
| 2026-05-01 08:44 | 23.01442 | -49.96997 | 5389 ft | 361 kts | 63° |
| 2026-05-01 08:44 | 23.02531 | -49.94544 | 5388 ft | 360 kts | 64° |
| 2026-05-01 08:44 | 23.03608 | -49.92078 | 5394 ft | 361 kts | 64° |
| 2026-05-01 08:44 | 23.04681 | -49.89618 | 5396 ft | 361 kts | 64° |
| 2026-05-01 08:45 | 23.05759 | -49.87158 | 5395 ft | 361 kts | 64° |
| 2026-05-01 08:45 | 23.06843 | -49.84694 | 5400 ft | 361 kts | 64° |
| 2026-05-01 08:45 | 23.07931 | -49.82230 | 5397 ft | 362 kts | 63° |
| 2026-05-01 08:45 | 23.09023 | -49.79764 | 5395 ft | 362 kts | 63° |
| 2026-05-01 08:46 | 23.10117 | -49.77295 | 5398 ft | 362 kts | 63° |
| 2026-05-01 08:46 | 23.11198 | -49.74859 | 5397 ft | 363 kts | 63° |
| 2026-05-01 08:46 | 23.12307 | -49.72360 | 5391 ft | 363 kts | 64° |
| 2026-05-01 08:46 | 23.13387 | -49.69924 | 5399 ft | 362 kts | 63° |
| 2026-05-01 08:47 | 23.14481 | -49.67458 | 5393 ft | 363 kts | 63° |
| 2026-05-01 08:47 | 23.15576 | -49.64988 | 5400 ft | 362 kts | 63° |
| 2026-05-01 08:47 | 23.16672 | -49.62516 | 5390 ft | 363 kts | 63° |
| 2026-05-01 08:47 | 23.17764 | -49.60050 | 5392 ft | 362 kts | 63° |
| 2026-05-01 08:48 | 23.18858 | -49.57579 | 5397 ft | 362 kts | 63° |
| 2026-05-01 08:48 | 23.19948 | -49.55114 | 5401 ft | 362 kts | 63° |
| 2026-05-01 08:48 | 23.21041 | -49.52642 | 5395 ft | 362 kts | 63° |
| 2026-05-01 08:48 | 23.22132 | -49.50174 | 5395 ft | 362 kts | 64° |
| 2026-05-01 08:49 | 23.23223 | -49.47704 | 5398 ft | 362 kts | 63° |
| 2026-05-01 08:49 | 23.24311 | -49.45241 | 5399 ft | 362 kts | 64° |
| 2026-05-01 08:49 | 23.25401 | -49.42772 | 5397 ft | 362 kts | 63° |
| 2026-05-01 08:49 | 23.26488 | -49.40308 | 5395 ft | 361 kts | 64° |
| 2026-05-01 08:50 | 23.27574 | -49.37843 | 5398 ft | 361 kts | 64° |
| 2026-05-01 08:50 | 23.28660 | -49.35378 | 5391 ft | 361 kts | 63° |
| 2026-05-01 08:50 | 23.29745 | -49.32914 | 5402 ft | 362 kts | 63° |
| 2026-05-01 08:50 | 23.30820 | -49.30473 | 5398 ft | 362 kts | 63° |
| 2026-05-01 08:51 | 23.31907 | -49.28000 | 5401 ft | 362 kts | 64° |
| 2026-05-01 08:51 | 23.32996 | -49.25524 | 5405 ft | 363 kts | 64° |
| 2026-05-01 08:51 | 23.34085 | -49.23046 | 5394 ft | 363 kts | 64° |
| 2026-05-01 08:51 | 23.35174 | -49.20567 | 5394 ft | 363 kts | 64° |
| 2026-05-01 08:52 | 23.36263 | -49.18088 | 5395 ft | 363 kts | 64° |
| 2026-05-01 08:52 | 23.37350 | -49.15610 | 5392 ft | 363 kts | 64° |
| 2026-05-01 08:52 | 23.38436 | -49.13133 | 5396 ft | 363 kts | 64° |
| 2026-05-01 08:52 | 23.39524 | -49.10651 | 5396 ft | 362 kts | 64° |
| 2026-05-01 08:53 | 23.40610 | -49.08173 | 5397 ft | 362 kts | 64° |
| 2026-05-01 08:53 | 23.41693 | -49.05699 | 5398 ft | 362 kts | 64° |
| 2026-05-01 08:53 | 23.42762 | -49.03257 | 5399 ft | 362 kts | 64° |
| 2026-05-01 08:53 | 23.43857 | -49.00752 | 5399 ft | 362 kts | 64° |
| 2026-05-01 08:54 | 23.44885 | -48.98401 | 5402 ft | 362 kts | 64° |
| 2026-05-01 08:54 | 23.45970 | -48.95918 | 5400 ft | 363 kts | 64° |
| 2026-05-01 08:54 | 23.47053 | -48.93440 | 5398 ft | 363 kts | 64° |
| 2026-05-01 08:54 | 23.48138 | -48.90954 | 5396 ft | 363 kts | 64° |
| 2026-05-01 08:55 | 23.49221 | -48.88472 | 5396 ft | 363 kts | 64° |
| 2026-05-01 08:55 | 23.50305 | -48.85985 | 5393 ft | 363 kts | 64° |
| 2026-05-01 08:55 | 23.51387 | -48.83502 | 5396 ft | 363 kts | 64° |
| 2026-05-01 08:55 | 23.52468 | -48.81019 | 5399 ft | 362 kts | 64° |
| 2026-05-01 08:56 | 23.53548 | -48.78540 | 5395 ft | 362 kts | 64° |
| 2026-05-01 08:56 | 23.54626 | -48.76062 | 5397 ft | 362 kts | 64° |
| 2026-05-01 08:56 | 23.55705 | -48.73582 | 5405 ft | 362 kts | 64° |
| 2026-05-01 08:56 | 23.56785 | -48.71096 | 5397 ft | 363 kts | 64° |
| 2026-05-01 08:57 | 23.57866 | -48.68608 | 5399 ft | 364 kts | 64° |
| 2026-05-01 08:57 | 23.58951 | -48.66110 | 5400 ft | 365 kts | 64° |
| 2026-05-01 08:57 | 23.60038 | -48.63605 | 5405 ft | 366 kts | 64° |
| 2026-05-01 08:57 | 23.61128 | -48.61092 | 5405 ft | 366 kts | 64° |
| 2026-05-01 08:58 | 23.62217 | -48.58581 | 5397 ft | 366 kts | 64° |
| 2026-05-01 08:58 | 23.63304 | -48.56072 | 5391 ft | 366 kts | 64° |
| 2026-05-01 08:58 | 23.64390 | -48.53563 | 5390 ft | 365 kts | 64° |
| 2026-05-01 08:58 | 23.65475 | -48.51056 | 5389 ft | 365 kts | 64° |
| 2026-05-01 08:59 | 23.66544 | -48.48584 | 5394 ft | 364 kts | 64° |
| 2026-05-01 08:59 | 23.67624 | -48.46086 | 5400 ft | 363 kts | 64° |
| 2026-05-01 08:59 | 23.68699 | -48.43599 | 5388 ft | 363 kts | 64° |
| 2026-05-01 08:59 | 23.69773 | -48.41112 | 5397 ft | 362 kts | 64° |
| 2026-05-01 09:00 | 23.70849 | -48.38621 | 5387 ft | 362 kts | 64° |
| 2026-05-01 09:00 | 23.71923 | -48.36132 | 5398 ft | 362 kts | 64° |
| 2026-05-01 09:00 | 23.72996 | -48.33641 | 5400 ft | 363 kts | 64° |
| 2026-05-01 09:00 | 23.74072 | -48.31144 | 5408 ft | 364 kts | 64° |
| 2026-05-01 09:01 | 23.75153 | -48.28637 | 5402 ft | 365 kts | 64° |
| 2026-05-01 09:01 | 23.76234 | -48.26125 | 5401 ft | 366 kts | 64° |
| 2026-05-01 09:01 | 23.77318 | -48.23606 | 5401 ft | 367 kts | 64° |
| 2026-05-01 09:01 | 23.78401 | -48.21087 | 5393 ft | 367 kts | 64° |
| 2026-05-01 09:02 | 23.79484 | -48.18567 | 5394 ft | 366 kts | 64° |
| 2026-05-01 09:02 | 23.80564 | -48.16051 | 5394 ft | 365 kts | 64° |
| 2026-05-01 09:02 | 23.81640 | -48.13546 | 5395 ft | 364 kts | 64° |
| 2026-05-01 09:02 | 23.82713 | -48.11046 | 5395 ft | 363 kts | 64° |
| 2026-05-01 09:03 | 23.83422 | -48.09391 | 5396 ft | 363 kts | 64° |
| 2026-05-01 09:03 | 23.84492 | -48.06896 | 5394 ft | 362 kts | 64° |
| 2026-05-01 09:03 | 23.85558 | -48.04407 | 5393 ft | 362 kts | 64° |
| 2026-05-01 09:03 | 23.86623 | -48.01922 | 5398 ft | 361 kts | 64° |
| 2026-05-01 09:04 | 23.87647 | -47.99529 | 5398 ft | 361 kts | 64° |
| 2026-05-01 09:04 | 23.88710 | -47.97044 | 5401 ft | 361 kts | 64° |
| 2026-05-01 09:04 | 23.89773 | -47.94558 | 5397 ft | 361 kts | 64° |
| 2026-05-01 09:04 | 23.90838 | -47.92067 | 5396 ft | 361 kts | 64° |
| 2026-05-01 09:05 | 23.91900 | -47.89580 | 5396 ft | 362 kts | 64° |
| 2026-05-01 09:05 | 23.92964 | -47.87088 | 5399 ft | 362 kts | 64° |
| 2026-05-01 09:05 | 23.94029 | -47.84591 | 5394 ft | 362 kts | 64° |
| 2026-05-01 09:05 | 23.95094 | -47.82093 | 5398 ft | 362 kts | 64° |
| 2026-05-01 09:06 | 23.96144 | -47.79629 | 5397 ft | 362 kts | 64° |
| 2026-05-01 09:06 | 23.97206 | -47.77136 | 5395 ft | 362 kts | 64° |
| 2026-05-01 09:06 | 23.98271 | -47.74634 | 5400 ft | 363 kts | 64° |
| 2026-05-01 09:06 | 23.99335 | -47.72134 | 5402 ft | 363 kts | 64° |
| 2026-05-01 09:07 | 24.00399 | -47.69633 | 5403 ft | 364 kts | 64° |
| 2026-05-01 09:07 | 24.01466 | -47.67122 | 5401 ft | 364 kts | 64° |
| 2026-05-01 09:07 | 24.02535 | -47.64605 | 5401 ft | 364 kts | 64° |
| 2026-05-01 09:07 | 24.03603 | -47.62090 | 5399 ft | 364 kts | 64° |
| 2026-05-01 09:08 | 24.04669 | -47.59577 | 5396 ft | 364 kts | 64° |
| 2026-05-01 09:08 | 24.05734 | -47.57066 | 5405 ft | 363 kts | 64° |
| 2026-05-01 09:08 | 24.06797 | -47.54558 | 5396 ft | 363 kts | 64° |
| 2026-05-01 09:08 | 24.07857 | -47.52055 | 5394 ft | 363 kts | 64° |
| 2026-05-01 09:09 | 24.08917 | -47.49553 | 5392 ft | 362 kts | 64° |
| 2026-05-01 09:09 | 24.09973 | -47.47055 | 5396 ft | 362 kts | 64° |
| 2026-05-01 09:09 | 24.11031 | -47.44553 | 5399 ft | 362 kts | 64° |
| 2026-05-01 09:09 | 24.12088 | -47.42053 | 5395 ft | 362 kts | 64° |
| 2026-05-01 09:10 | 24.13145 | -47.39551 | 5402 ft | 363 kts | 64° |
| 2026-05-01 09:10 | 24.14204 | -47.37043 | 5397 ft | 363 kts | 64° |
| 2026-05-01 09:10 | 24.15262 | -47.34536 | 5401 ft | 363 kts | 64° |
| 2026-05-01 09:10 | 24.16320 | -47.32028 | 5401 ft | 363 kts | 64° |
| 2026-05-01 09:11 | 24.17364 | -47.29551 | 5397 ft | 363 kts | 64° |
| 2026-05-01 09:11 | 24.18420 | -47.27043 | 5392 ft | 363 kts | 64° |
| 2026-05-01 09:11 | 24.19476 | -47.24535 | 5397 ft | 362 kts | 64° |
| 2026-05-01 09:11 | 24.20532 | -47.22028 | 5399 ft | 362 kts | 64° |
| 2026-05-01 09:12 | 24.21585 | -47.19523 | 5398 ft | 362 kts | 64° |
| 2026-05-01 09:12 | 24.22640 | -47.17013 | 5391 ft | 363 kts | 64° |
| 2026-05-01 09:12 | 24.23695 | -47.14502 | 5392 ft | 362 kts | 64° |
| 2026-05-01 09:12 | 24.24748 | -47.11995 | 5398 ft | 362 kts | 64° |
| 2026-05-01 09:13 | 24.25803 | -47.09482 | 5400 ft | 363 kts | 64° |
| 2026-05-01 09:13 | 24.26857 | -47.06967 | 5403 ft | 363 kts | 64° |
| 2026-05-01 09:13 | 24.27912 | -47.04450 | 5398 ft | 364 kts | 64° |
| 2026-05-01 09:13 | 24.28968 | -47.01930 | 5399 ft | 364 kts | 64° |
| 2026-05-01 09:14 | 24.29986 | -46.99499 | 5396 ft | 365 kts | 64° |
| 2026-05-01 09:14 | 24.31044 | -46.96970 | 5398 ft | 365 kts | 64° |
| 2026-05-01 09:14 | 24.32101 | -46.94443 | 5396 ft | 364 kts | 64° |
| 2026-05-01 09:14 | 24.33156 | -46.91919 | 5397 ft | 364 kts | 64° |
| 2026-05-01 09:15 | 24.34210 | -46.89397 | 5394 ft | 364 kts | 64° |
| 2026-05-01 09:15 | 24.35262 | -46.86877 | 5400 ft | 364 kts | 64° |
| 2026-05-01 09:15 | 24.36314 | -46.84357 | 5391 ft | 364 kts | 64° |
| 2026-05-01 09:15 | 24.37366 | -46.81834 | 5397 ft | 363 kts | 64° |
| 2026-05-01 09:16 | 24.38416 | -46.79314 | 5393 ft | 363 kts | 64° |
| 2026-05-01 09:16 | 24.39466 | -46.76794 | 5398 ft | 364 kts | 64° |
| 2026-05-01 09:16 | 24.40504 | -46.74302 | 5402 ft | 364 kts | 64° |
| 2026-05-01 09:17 | 24.42622 | -46.69210 | 5401 ft | 365 kts | 64° |
| 2026-05-01 09:17 | 24.43660 | -46.66714 | 5401 ft | 365 kts | 64° |
| 2026-05-01 09:17 | 24.45768 | -46.61636 | 5395 ft | 366 kts | 64° |
| 2026-05-01 09:18 | 24.46822 | -46.59096 | 5403 ft | 366 kts | 64° |
| 2026-05-01 09:18 | 24.48935 | -46.54003 | 5395 ft | 367 kts | 64° |
| 2026-05-01 09:19 | 24.51050 | -46.48895 | 5395 ft | 368 kts | 64° |
| 2026-05-01 09:19 | 24.52109 | -46.46335 | 5394 ft | 368 kts | 64° |
| 2026-05-01 09:19 | 24.53167 | -46.43776 | 5398 ft | 368 kts | 64° |
| 2026-05-01 09:20 | 24.55283 | -46.38655 | 5394 ft | 368 kts | 64° |
| 2026-05-01 09:20 | 24.57398 | -46.33531 | 5402 ft | 367 kts | 64° |
| 2026-05-01 09:21 | 24.59501 | -46.28428 | 5391 ft | 366 kts | 64° |
| 2026-05-01 09:21 | 24.60553 | -46.25875 | 5397 ft | 367 kts | 65° |
| 2026-05-01 09:21 | 24.62662 | -46.20751 | 5396 ft | 368 kts | 65° |
| 2026-05-01 09:22 | 24.64771 | -46.15618 | 5401 ft | 369 kts | 64° |
| 2026-05-01 09:22 | 24.66881 | -46.10481 | 5400 ft | 369 kts | 65° |
| 2026-05-01 09:23 | 24.67934 | -46.07912 | 5393 ft | 368 kts | 65° |
| 2026-05-01 09:23 | 24.70022 | -46.02817 | 5393 ft | 367 kts | 64° |
| 2026-05-01 09:24 | 24.72080 | -45.97790 | 5406 ft | 368 kts | 64° |
| 2026-05-01 09:24 | 24.73133 | -45.95217 | 5403 ft | 369 kts | 65° |
| 2026-05-01 09:24 | 24.75234 | -45.90075 | 5395 ft | 368 kts | 64° |
| 2026-05-01 09:25 | 24.77329 | -45.84941 | 5398 ft | 367 kts | 65° |
| 2026-05-01 09:25 | 24.79420 | -45.79812 | 5403 ft | 367 kts | 65° |
| 2026-05-01 09:26 | 24.80466 | -45.77244 | 5394 ft | 367 kts | 65° |
| 2026-05-01 09:26 | 24.82555 | -45.72112 | 5401 ft | 367 kts | 65° |
| 2026-05-01 09:26 | 24.83597 | -45.69549 | 5403 ft | 367 kts | 65° |
| 2026-05-01 09:27 | 24.85671 | -45.64445 | 5400 ft | 369 kts | 65° |
| 2026-05-01 09:27 | 24.86719 | -45.61863 | 5398 ft | 369 kts | 65° |
| 2026-05-01 09:27 | 24.87768 | -45.59278 | 5397 ft | 370 kts | 65° |
| 2026-05-01 09:28 | 24.88818 | -45.56686 | 5401 ft | 370 kts | 65° |
| 2026-05-01 09:28 | 24.89868 | -45.54097 | 5398 ft | 370 kts | 65° |
| 2026-05-01 09:28 | 24.90915 | -45.51511 | 5401 ft | 369 kts | 65° |
| 2026-05-01 09:28 | 24.91958 | -45.48932 | 5394 ft | 369 kts | 65° |
| 2026-05-01 09:29 | 24.94043 | -45.43776 | 5394 ft | 368 kts | 65° |
| 2026-05-01 09:29 | 24.95083 | -45.41202 | 5399 ft | 367 kts | 65° |
| 2026-05-01 09:30 | 24.97165 | -45.36043 | 5407 ft | 369 kts | 65° |
| 2026-05-01 09:30 | 24.98207 | -45.33460 | 5407 ft | 369 kts | 65° |
| 2026-05-01 09:30 | 25.00292 | -45.28285 | 5403 ft | 370 kts | 65° |
| 2026-05-01 09:31 | 25.01338 | -45.25685 | 5402 ft | 371 kts | 65° |
| 2026-05-01 09:31 | 25.02385 | -45.23084 | 5398 ft | 371 kts | 65° |
| 2026-05-01 09:31 | 25.04476 | -45.17882 | 5395 ft | 370 kts | 65° |
| 2026-05-01 09:32 | 25.05516 | -45.15290 | 5398 ft | 369 kts | 65° |
| 2026-05-01 09:32 | 25.07587 | -45.10129 | 5402 ft | 367 kts | 65° |
| 2026-05-01 09:32 | 25.08604 | -45.07592 | 5400 ft | 366 kts | 65° |
| 2026-05-01 09:33 | 25.09631 | -45.05028 | 5394 ft | 365 kts | 65° |
| 2026-05-01 09:33 | 25.10658 | -45.02463 | 5400 ft | 365 kts | 65° |
| 2026-05-01 09:33 | 25.12666 | -44.97442 | 5395 ft | 364 kts | 65° |
| 2026-05-01 09:34 | 25.13687 | -44.94887 | 5406 ft | 364 kts | 65° |
| 2026-05-01 09:34 | 25.14709 | -44.92330 | 5399 ft | 364 kts | 65° |
| 2026-05-01 09:34 | 25.16755 | -44.87202 | 5400 ft | 366 kts | 65° |
| 2026-05-01 09:35 | 25.17782 | -44.84627 | 5403 ft | 367 kts | 65° |
| 2026-05-01 09:35 | 25.19840 | -44.79460 | 5397 ft | 368 kts | 65° |
| 2026-05-01 09:35 | 25.20870 | -44.76874 | 5400 ft | 368 kts | 65° |
| 2026-05-01 09:36 | 25.21901 | -44.74281 | 5404 ft | 368 kts | 65° |
| 2026-05-01 09:36 | 25.22930 | -44.71691 | 5400 ft | 369 kts | 65° |
| 2026-05-01 09:36 | 25.23961 | -44.69096 | 5405 ft | 368 kts | 65° |
| 2026-05-01 09:36 | 25.24990 | -44.66504 | 5396 ft | 368 kts | 65° |
| 2026-05-01 09:37 | 25.26006 | -44.63945 | 5394 ft | 368 kts | 65° |
| 2026-05-01 09:37 | 25.28054 | -44.58776 | 5395 ft | 367 kts | 65° |
| 2026-05-01 09:37 | 25.29076 | -44.56196 | 5402 ft | 366 kts | 65° |
| 2026-05-01 09:38 | 25.31113 | -44.51048 | 5399 ft | 365 kts | 65° |
| 2026-05-01 09:38 | 25.32129 | -44.48477 | 5402 ft | 365 kts | 65° |
| 2026-05-01 09:38 | 25.33147 | -44.45901 | 5397 ft | 365 kts | 65° |
| 2026-05-01 09:39 | 25.35179 | -44.40755 | 5401 ft | 365 kts | 65° |
| 2026-05-01 09:39 | 25.36193 | -44.38184 | 5405 ft | 365 kts | 65° |
| 2026-05-01 09:39 | 25.37208 | -44.35609 | 5403 ft | 365 kts | 65° |
| 2026-05-01 09:40 | 25.38221 | -44.33036 | 5405 ft | 365 kts | 65° |
| 2026-05-01 09:40 | 25.40251 | -44.27879 | 5400 ft | 366 kts | 65° |
| 2026-05-01 09:40 | 25.41267 | -44.25295 | 5401 ft | 366 kts | 65° |
| 2026-05-01 09:41 | 25.42283 | -44.22708 | 5404 ft | 367 kts | 65° |
| 2026-05-01 09:41 | 25.44314 | -44.17535 | 5405 ft | 367 kts | 65° |
| 2026-05-01 09:41 | 25.45330 | -44.14945 | 5401 ft | 367 kts | 65° |
| 2026-05-01 09:42 | 25.46333 | -44.12385 | 5403 ft | 367 kts | 65° |
| 2026-05-01 09:42 | 25.47347 | -44.09798 | 5398 ft | 367 kts | 65° |
| 2026-05-01 09:42 | 25.49374 | -44.04617 | 5398 ft | 366 kts | 65° |
| 2026-05-01 09:43 | 25.51361 | -43.99535 | 5407 ft | 366 kts | 65° |
| 2026-05-01 09:43 | 25.52373 | -43.96943 | 5402 ft | 366 kts | 65° |
| 2026-05-01 09:43 | 25.53385 | -43.94350 | 5404 ft | 366 kts | 66° |
| 2026-05-01 09:44 | 25.55405 | -43.89171 | 5400 ft | 367 kts | 65° |
| 2026-05-01 09:44 | 25.56417 | -43.86577 | 5407 ft | 367 kts | 65° |
| 2026-05-01 09:44 | 25.57425 | -43.83987 | 5399 ft | 367 kts | 66° |
| 2026-05-01 09:45 | 25.58421 | -43.81424 | 5411 ft | 367 kts | 66° |
| 2026-05-01 09:45 | 25.60439 | -43.76232 | 5402 ft | 367 kts | 66° |
| 2026-05-01 09:45 | 25.61459 | -43.73604 | 5401 ft | 367 kts | 66° |
| 2026-05-01 09:46 | 25.62455 | -43.71037 | 5404 ft | 367 kts | 66° |
| 2026-05-01 09:46 | 25.63462 | -43.68441 | 5394 ft | 367 kts | 66° |
| 2026-05-01 09:46 | 25.64467 | -43.65849 | 5394 ft | 366 kts | 66° |
| 2026-05-01 09:46 | 25.65474 | -43.63250 | 5397 ft | 366 kts | 66° |
| 2026-05-01 09:47 | 25.66477 | -43.60658 | 5405 ft | 366 kts | 66° |
| 2026-05-01 09:47 | 25.67481 | -43.58063 | 5399 ft | 367 kts | 66° |
| 2026-05-01 09:47 | 25.68486 | -43.55463 | 5408 ft | 367 kts | 66° |
| 2026-05-01 09:47 | 25.69491 | -43.52864 | 5397 ft | 367 kts | 66° |
| 2026-05-01 09:48 | 25.70497 | -43.50259 | 5402 ft | 367 kts | 66° |
| 2026-05-01 09:48 | 25.71501 | -43.47658 | 5403 ft | 367 kts | 66° |
| 2026-05-01 09:48 | 25.72507 | -43.45049 | 5402 ft | 368 kts | 66° |
| 2026-05-01 09:48 | 25.73500 | -43.42473 | 5398 ft | 368 kts | 66° |
| 2026-05-01 09:49 | 25.74504 | -43.39867 | 5399 ft | 367 kts | 66° |
| 2026-05-01 09:49 | 25.75505 | -43.37266 | 5402 ft | 366 kts | 66° |
| 2026-05-01 09:49 | 25.76504 | -43.34669 | 5401 ft | 366 kts | 66° |
| 2026-05-01 09:49 | 25.77503 | -43.32070 | 5402 ft | 366 kts | 66° |
| 2026-05-01 09:50 | 25.78500 | -43.29476 | 5400 ft | 366 kts | 66° |
| 2026-05-01 09:50 | 25.79498 | -43.26878 | 5401 ft | 366 kts | 66° |
| 2026-05-01 09:50 | 25.80496 | -43.24275 | 5398 ft | 366 kts | 66° |
| 2026-05-01 09:50 | 25.81493 | -43.21677 | 5405 ft | 366 kts | 66° |
| 2026-05-01 09:51 | 25.82489 | -43.19078 | 5403 ft | 367 kts | 66° |
| 2026-05-01 09:51 | 25.83488 | -43.16470 | 5398 ft | 367 kts | 66° |
| 2026-05-01 09:51 | 25.84149 | -43.14744 | 5398 ft | 367 kts | 66° |
| 2026-05-01 09:51 | 25.85146 | -43.12138 | 5397 ft | 367 kts | 66° |
| 2026-05-01 09:52 | 25.86143 | -43.09531 | 5397 ft | 367 kts | 66° |
| 2026-05-01 09:52 | 25.87137 | -43.06927 | 5395 ft | 366 kts | 66° |
| 2026-05-01 09:52 | 25.88132 | -43.04322 | 5402 ft | 366 kts | 66° |
| 2026-05-01 09:52 | 25.89447 | -43.00878 | 5403 ft | 366 kts | 66° |
| 2026-05-01 09:53 | 25.90080 | -42.99218 | 5408 ft | 366 kts | 66° |
| 2026-05-01 09:53 | 25.91070 | -42.96618 | 5402 ft | 365 kts | 66° |
| 2026-05-01 09:53 | 25.92061 | -42.94019 | 5399 ft | 365 kts | 66° |
| 2026-05-01 09:53 | 25.93050 | -42.91419 | 5400 ft | 365 kts | 66° |
| 2026-05-01 09:54 | 25.94027 | -42.88854 | 5403 ft | 365 kts | 66° |
| 2026-05-01 09:54 | 25.95013 | -42.86258 | 5401 ft | 364 kts | 66° |
| 2026-05-01 09:54 | 25.95999 | -42.83663 | 5406 ft | 364 kts | 66° |
| 2026-05-01 09:54 | 25.96987 | -42.81062 | 5402 ft | 365 kts | 66° |
| 2026-05-01 09:55 | 25.97971 | -42.78469 | 5402 ft | 365 kts | 66° |
| 2026-05-01 09:55 | 25.98957 | -42.75868 | 5400 ft | 365 kts | 66° |
| 2026-05-01 09:55 | 25.99943 | -42.73268 | 5399 ft | 365 kts | 66° |
| 2026-05-01 09:55 | 26.00926 | -42.70672 | 5405 ft | 365 kts | 66° |
| 2026-05-01 09:56 | 26.01909 | -42.68075 | 5394 ft | 365 kts | 66° |
| 2026-05-01 09:56 | 26.02893 | -42.65473 | 5399 ft | 365 kts | 66° |
| 2026-05-01 09:56 | 26.03876 | -42.62872 | 5403 ft | 365 kts | 66° |
| 2026-05-01 09:56 | 26.04859 | -42.60271 | 5398 ft | 365 kts | 66° |
| 2026-05-01 09:57 | 26.05840 | -42.57673 | 5406 ft | 365 kts | 66° |
| 2026-05-01 09:57 | 26.06821 | -42.55071 | 5405 ft | 365 kts | 66° |
| 2026-05-01 09:57 | 26.07802 | -42.52470 | 5403 ft | 365 kts | 66° |
| 2026-05-01 09:57 | 26.08782 | -42.49869 | 5400 ft | 365 kts | 66° |
| 2026-05-01 09:58 | 26.09762 | -42.47267 | 5406 ft | 365 kts | 66° |
| 2026-05-01 09:58 | 26.10743 | -42.44661 | 5399 ft | 365 kts | 66° |
| 2026-05-01 09:58 | 26.11720 | -42.42062 | 5405 ft | 365 kts | 66° |
| 2026-05-01 09:58 | 26.12700 | -42.39454 | 5406 ft | 365 kts | 67° |
| 2026-05-01 09:59 | 26.13680 | -42.36846 | 5405 ft | 365 kts | 67° |
| 2026-05-01 09:59 | 26.14647 | -42.34269 | 5402 ft | 366 kts | 66° |
| 2026-05-01 09:59 | 26.15628 | -42.31656 | 5396 ft | 366 kts | 66° |
| 2026-05-01 09:59 | 26.16610 | -42.29036 | 5402 ft | 366 kts | 67° |
| 2026-05-01 10:00 | 26.17593 | -42.26411 | 5395 ft | 366 kts | 67° |
| 2026-05-01 10:00 | 26.18573 | -42.23793 | 5402 ft | 366 kts | 66° |
| 2026-05-01 10:00 | 26.19553 | -42.21175 | 5405 ft | 366 kts | 67° |
| 2026-05-01 10:00 | 26.20531 | -42.18558 | 5404 ft | 366 kts | 67° |
| 2026-05-01 10:01 | 26.21510 | -42.15937 | 5399 ft | 366 kts | 67° |
| 2026-05-01 10:01 | 26.22490 | -42.13315 | 5399 ft | 366 kts | 67° |
| 2026-05-01 10:01 | 26.23465 | -42.10701 | 5392 ft | 365 kts | 67° |
| 2026-05-01 10:01 | 26.24438 | -42.08091 | 5398 ft | 365 kts | 67° |
| 2026-05-01 10:02 | 26.25411 | -42.05480 | 5396 ft | 364 kts | 67° |
| 2026-05-01 10:02 | 26.26381 | -42.02876 | 5405 ft | 364 kts | 67° |
| 2026-05-01 10:02 | 26.27352 | -42.00269 | 5395 ft | 364 kts | 67° |
| 2026-05-01 10:02 | 26.28283 | -41.97765 | 5405 ft | 363 kts | 66° |
| 2026-05-01 10:03 | 26.29251 | -41.95162 | 5400 ft | 363 kts | 67° |
| 2026-05-01 10:03 | 26.30219 | -41.92556 | 5404 ft | 363 kts | 67° |
| 2026-05-01 10:03 | 26.31184 | -41.89956 | 5397 ft | 363 kts | 67° |
| 2026-05-01 10:03 | 26.32150 | -41.87350 | 5404 ft | 364 kts | 67° |
| 2026-05-01 10:04 | 26.33117 | -41.84744 | 5404 ft | 364 kts | 67° |
| 2026-05-01 10:04 | 26.34082 | -41.82137 | 5403 ft | 364 kts | 67° |
| 2026-05-01 10:04 | 26.35050 | -41.79524 | 5400 ft | 365 kts | 67° |
| 2026-05-01 10:04 | 26.36018 | -41.76908 | 5397 ft | 365 kts | 67° |
| 2026-05-01 10:05 | 26.36988 | -41.74285 | 5402 ft | 365 kts | 67° |
| 2026-05-01 10:05 | 26.37955 | -41.71667 | 5395 ft | 365 kts | 67° |
| 2026-05-01 10:05 | 26.38913 | -41.69073 | 5401 ft | 366 kts | 67° |
| 2026-05-01 10:05 | 26.39881 | -41.66450 | 5396 ft | 366 kts | 67° |
| 2026-05-01 10:06 | 26.40848 | -41.63827 | 5395 ft | 365 kts | 67° |
| 2026-05-01 10:06 | 26.41818 | -41.61198 | 5393 ft | 366 kts | 67° |
| 2026-05-01 10:06 | 26.42784 | -41.58573 | 5399 ft | 365 kts | 67° |
| 2026-05-01 10:06 | 26.43747 | -41.55956 | 5394 ft | 365 kts | 67° |
| 2026-05-01 10:07 | 26.44709 | -41.53341 | 5399 ft | 364 kts | 67° |
| 2026-05-01 10:07 | 26.45671 | -41.50724 | 5395 ft | 364 kts | 67° |
| 2026-05-01 10:07 | 26.46633 | -41.48107 | 5403 ft | 364 kts | 67° |
| 2026-05-01 10:07 | 26.47591 | -41.45496 | 5400 ft | 364 kts | 66° |
| 2026-05-01 10:08 | 26.49509 | -41.40267 | 5405 ft | 364 kts | 67° |
| 2026-05-01 10:08 | 26.50467 | -41.37653 | 5403 ft | 364 kts | 67° |
| 2026-05-01 10:08 | 26.51424 | -41.35038 | 5400 ft | 364 kts | 67° |
| 2026-05-01 10:09 | 26.52382 | -41.32420 | 5397 ft | 364 kts | 67° |
| 2026-05-01 10:09 | 26.53338 | -41.29803 | 5407 ft | 364 kts | 67° |
| 2026-05-01 10:09 | 26.54295 | -41.27186 | 5398 ft | 364 kts | 67° |
| 2026-05-01 10:09 | 26.55252 | -41.24564 | 5404 ft | 364 kts | 67° |
| 2026-05-01 10:10 | 26.56197 | -41.21977 | 5399 ft | 365 kts | 67° |
| 2026-05-01 10:10 | 26.57154 | -41.19350 | 5397 ft | 365 kts | 67° |
| 2026-05-01 10:10 | 26.59067 | -41.14098 | 5393 ft | 364 kts | 67° |
| 2026-05-01 10:11 | 26.60021 | -41.11477 | 5395 ft | 364 kts | 67° |
| 2026-05-01 10:11 | 26.60975 | -41.08854 | 5396 ft | 364 kts | 67° |
| 2026-05-01 10:11 | 26.61929 | -41.06228 | 5395 ft | 364 kts | 67° |
| 2026-05-01 10:11 | 26.62882 | -41.03605 | 5400 ft | 364 kts | 67° |
| 2026-05-01 10:12 | 26.63832 | -41.00987 | 5402 ft | 364 kts | 67° |
| 2026-05-01 10:12 | 26.64750 | -40.98458 | 5403 ft | 364 kts | 67° |
| 2026-05-01 10:12 | 26.66653 | -40.93207 | 5396 ft | 364 kts | 67° |
| 2026-05-01 10:13 | 26.67602 | -40.90584 | 5400 ft | 364 kts | 67° |
| 2026-05-01 10:13 | 26.68552 | -40.87958 | 5397 ft | 364 kts | 67° |
| 2026-05-01 10:13 | 26.69501 | -40.85331 | 5398 ft | 364 kts | 67° |
| 2026-05-01 10:14 | 26.71400 | -40.80075 | 5396 ft | 364 kts | 67° |
| 2026-05-01 10:14 | 26.72347 | -40.77450 | 5398 ft | 364 kts | 68° |
| 2026-05-01 10:14 | 26.73295 | -40.74821 | 5399 ft | 364 kts | 67° |
| 2026-05-01 10:14 | 26.74243 | -40.72189 | 5390 ft | 364 kts | 67° |
| 2026-05-01 10:15 | 26.75188 | -40.69563 | 5398 ft | 364 kts | 67° |
| 2026-05-01 10:15 | 26.76134 | -40.66933 | 5394 ft | 364 kts | 67° |
| 2026-05-01 10:15 | 26.77067 | -40.64339 | 5395 ft | 364 kts | 67° |
| 2026-05-01 10:15 | 26.78012 | -40.61710 | 5396 ft | 364 kts | 67° |
| 2026-05-01 10:16 | 26.78954 | -40.59084 | 5395 ft | 364 kts | 67° |
| 2026-05-01 10:16 | 26.79897 | -40.56457 | 5395 ft | 364 kts | 67° |
| 2026-05-01 10:16 | 26.81777 | -40.51210 | 5396 ft | 363 kts | 67° |
| 2026-05-01 10:17 | 26.82717 | -40.48587 | 5396 ft | 363 kts | 67° |
| 2026-05-01 10:17 | 26.84595 | -40.43338 | 5395 ft | 363 kts | 68° |
| 2026-05-01 10:17 | 26.85533 | -40.40712 | 5395 ft | 363 kts | 67° |
| 2026-05-01 10:18 | 26.87406 | -40.35466 | 5398 ft | 362 kts | 67° |
| 2026-05-01 10:18 | 26.88340 | -40.32848 | 5401 ft | 363 kts | 68° |
| 2026-05-01 10:18 | 26.89275 | -40.30224 | 5403 ft | 363 kts | 67° |
| 2026-05-01 10:19 | 26.90211 | -40.27595 | 5397 ft | 363 kts | 67° |
| 2026-05-01 10:19 | 26.91147 | -40.24967 | 5401 ft | 363 kts | 68° |
| 2026-05-01 10:19 | 26.92083 | -40.22334 | 5396 ft | 364 kts | 68° |
| 2026-05-01 10:20 | 26.93955 | -40.17064 | 5394 ft | 364 kts | 68° |
| 2026-05-01 10:20 | 26.94889 | -40.14432 | 5392 ft | 363 kts | 68° |
| 2026-05-01 10:20 | 26.95823 | -40.11799 | 5393 ft | 363 kts | 68° |
| 2026-05-01 10:20 | 26.96756 | -40.09167 | 5394 ft | 364 kts | 68° |
| 2026-05-01 10:21 | 26.97689 | -40.06535 | 5396 ft | 364 kts | 68° |
| 2026-05-01 10:21 | 26.99549 | -40.01293 | 5399 ft | 364 kts | 66° |
| 2026-05-01 10:21 | 27.00604 | -39.98850 | 5383 ft | 362 kts | 58° |
| 2026-05-01 10:22 | 27.03279 | -39.94072 | 5394 ft | 362 kts | 56° |
| 2026-05-01 10:22 | 27.05986 | -39.89304 | 5399 ft | 362 kts | 56° |
| 2026-05-01 10:23 | 27.07339 | -39.86912 | 5396 ft | 363 kts | 56° |
| 2026-05-01 10:23 | 27.10040 | -39.82116 | 5392 ft | 363 kts | 56° |
| 2026-05-01 10:23 | 27.11387 | -39.79716 | 5397 ft | 363 kts | 56° |
| 2026-05-01 10:24 | 27.14079 | -39.74911 | 5389 ft | 364 kts | 56° |
| 2026-05-01 10:24 | 27.16771 | -39.70097 | 5390 ft | 364 kts | 56° |
| 2026-05-01 10:25 | 27.19463 | -39.65278 | 5395 ft | 364 kts | 56° |
| 2026-05-01 10:25 | 27.22159 | -39.60448 | 5402 ft | 365 kts | 56° |
| 2026-05-01 10:26 | 27.23506 | -39.58032 | 5387 ft | 365 kts | 56° |
| 2026-05-01 10:26 | 27.24856 | -39.55611 | 5400 ft | 365 kts | 57° |
| 2026-05-01 10:26 | 27.27540 | -39.50788 | 5383 ft | 366 kts | 57° |
| 2026-05-01 10:27 | 27.30234 | -39.45945 | 5384 ft | 365 kts | 56° |
| 2026-05-01 10:27 | 27.32924 | -39.41103 | 5397 ft | 365 kts | 56° |
| 2026-05-01 10:28 | 27.34270 | -39.38678 | 5389 ft | 366 kts | 56° |
| 2026-05-01 10:28 | 27.36962 | -39.33824 | 5388 ft | 365 kts | 57° |
| 2026-05-01 10:28 | 27.38306 | -39.31399 | 5387 ft | 365 kts | 56° |
| 2026-05-01 10:29 | 27.40992 | -39.26549 | 5393 ft | 365 kts | 56° |
| 2026-05-01 10:29 | 27.42331 | -39.24127 | 5394 ft | 365 kts | 57° |
| 2026-05-01 10:30 | 27.45015 | -39.19274 | 5386 ft | 365 kts | 57° |
| 2026-05-01 10:30 | 27.47692 | -39.14425 | 5392 ft | 365 kts | 57° |
| 2026-05-01 10:31 | 27.50372 | -39.09565 | 5391 ft | 364 kts | 56° |
| 2026-05-01 10:31 | 27.53026 | -39.04748 | 5391 ft | 364 kts | 56° |
| 2026-05-01 10:32 | 27.55677 | -38.99932 | 5386 ft | 365 kts | 57° |
| 2026-05-01 10:32 | 27.56985 | -38.97553 | 5385 ft | 364 kts | 57° |
| 2026-05-01 10:32 | 27.59653 | -38.92696 | 5382 ft | 364 kts | 57° |
| 2026-05-01 10:33 | 27.62313 | -38.87850 | 5383 ft | 364 kts | 57° |
| 2026-05-01 10:33 | 27.64973 | -38.82997 | 5382 ft | 364 kts | 57° |
| 2026-05-01 10:34 | 27.66301 | -38.80573 | 5383 ft | 363 kts | 57° |
| 2026-05-01 10:34 | 27.67629 | -38.78147 | 5382 ft | 363 kts | 57° |
| 2026-05-01 10:34 | 27.68958 | -38.75718 | 5385 ft | 363 kts | 57° |
| 2026-05-01 10:35 | 27.71614 | -38.70860 | 5381 ft | 364 kts | 57° |
| 2026-05-01 10:35 | 27.72939 | -38.68434 | 5390 ft | 364 kts | 57° |
| 2026-05-01 10:35 | 27.74271 | -38.65994 | 5393 ft | 365 kts | 56° |
| 2026-05-01 10:35 | 27.75600 | -38.63557 | 5393 ft | 365 kts | 57° |
| 2026-05-01 10:36 | 27.78271 | -38.58659 | 5392 ft | 367 kts | 57° |
| 2026-05-01 10:36 | 27.79158 | -38.57030 | 5393 ft | 368 kts | 57° |
| 2026-05-01 10:36 | 27.80500 | -38.54566 | 5385 ft | 368 kts | 57° |
| 2026-05-01 10:37 | 27.81842 | -38.52098 | 5392 ft | 368 kts | 57° |
| 2026-05-01 10:37 | 27.84521 | -38.47171 | 5376 ft | 368 kts | 57° |
| 2026-05-01 10:37 | 27.85861 | -38.44705 | 5378 ft | 368 kts | 57° |
| 2026-05-01 10:38 | 27.87196 | -38.42244 | 5380 ft | 367 kts | 57° |
| 2026-05-01 10:38 | 27.88529 | -38.39787 | 5381 ft | 367 kts | 57° |
| 2026-05-01 10:38 | 27.89861 | -38.37331 | 5385 ft | 366 kts | 57° |
| 2026-05-01 10:38 | 27.91191 | -38.34877 | 5380 ft | 366 kts | 57° |
| 2026-05-01 10:39 | 27.92522 | -38.32419 | 5384 ft | 366 kts | 57° |
| 2026-05-01 10:39 | 27.93854 | -38.29960 | 5384 ft | 366 kts | 57° |
| 2026-05-01 10:39 | 27.95183 | -38.27504 | 5382 ft | 366 kts | 57° |
| 2026-05-01 10:39 | 27.96513 | -38.25043 | 5378 ft | 367 kts | 57° |
| 2026-05-01 10:40 | 27.97827 | -38.22612 | 5375 ft | 367 kts | 57° |
| 2026-05-01 10:40 | 27.99156 | -38.20151 | 5386 ft | 366 kts | 57° |
| 2026-05-01 10:40 | 28.00484 | -38.17691 | 5375 ft | 367 kts | 57° |
| 2026-05-01 10:40 | 28.01813 | -38.15228 | 5379 ft | 367 kts | 57° |
| 2026-05-01 10:41 | 28.03141 | -38.12765 | 5383 ft | 367 kts | 57° |
| 2026-05-01 10:41 | 28.04470 | -38.10298 | 5384 ft | 367 kts | 57° |
| 2026-05-01 10:41 | 28.07125 | -38.05367 | 5383 ft | 367 kts | 57° |
| 2026-05-01 10:42 | 28.08451 | -38.02901 | 5374 ft | 366 kts | 57° |
| 2026-05-01 10:42 | 28.09777 | -38.00434 | 5384 ft | 366 kts | 57° |
| 2026-05-01 10:42 | 28.11051 | -37.98063 | 5378 ft | 366 kts | 57° |
| 2026-05-01 10:42 | 28.12375 | -37.95598 | 5380 ft | 366 kts | 57° |
| 2026-05-01 10:43 | 28.13699 | -37.93132 | 5385 ft | 366 kts | 57° |
| 2026-05-01 10:43 | 28.15020 | -37.90667 | 5382 ft | 366 kts | 57° |
| 2026-05-01 10:43 | 28.16342 | -37.88202 | 5377 ft | 366 kts | 57° |
| 2026-05-01 10:43 | 28.17666 | -37.85731 | 5374 ft | 366 kts | 57° |
| 2026-05-01 10:44 | 28.18988 | -37.83262 | 5374 ft | 366 kts | 57° |
| 2026-05-01 10:44 | 28.20306 | -37.80799 | 5376 ft | 366 kts | 57° |
| 2026-05-01 10:44 | 28.21625 | -37.78331 | 5376 ft | 365 kts | 57° |
| 2026-05-01 10:44 | 28.22924 | -37.75901 | 5380 ft | 365 kts | 57° |
| 2026-05-01 10:45 | 28.24240 | -37.73437 | 5376 ft | 365 kts | 57° |
| 2026-05-01 10:45 | 28.25559 | -37.70968 | 5375 ft | 365 kts | 57° |
| 2026-05-01 10:45 | 28.26872 | -37.68507 | 5380 ft | 365 kts | 57° |
| 2026-05-01 10:45 | 28.28184 | -37.66047 | 5373 ft | 365 kts | 57° |
| 2026-05-01 10:46 | 28.29495 | -37.63587 | 5381 ft | 364 kts | 57° |
| 2026-05-01 10:46 | 28.30808 | -37.61121 | 5381 ft | 364 kts | 58° |
| 2026-05-01 10:46 | 28.32115 | -37.58666 | 5388 ft | 364 kts | 57° |
| 2026-05-01 10:46 | 28.33427 | -37.56200 | 5376 ft | 364 kts | 58° |
| 2026-05-01 10:47 | 28.34737 | -37.53736 | 5383 ft | 364 kts | 57° |
| 2026-05-01 10:47 | 28.36027 | -37.51309 | 5383 ft | 364 kts | 57° |
| 2026-05-01 10:47 | 28.37337 | -37.48843 | 5380 ft | 365 kts | 58° |
| 2026-05-01 10:47 | 28.38648 | -37.46373 | 5387 ft | 365 kts | 58° |
| 2026-05-01 10:48 | 28.39957 | -37.43904 | 5386 ft | 366 kts | 58° |
| 2026-05-01 10:48 | 28.41269 | -37.41431 | 5376 ft | 366 kts | 58° |
| 2026-05-01 10:48 | 28.42583 | -37.38950 | 5386 ft | 366 kts | 58° |
| 2026-05-01 10:48 | 28.43897 | -37.36469 | 5378 ft | 367 kts | 58° |
| 2026-05-01 10:49 | 28.45210 | -37.33988 | 5373 ft | 367 kts | 58° |
| 2026-05-01 10:49 | 28.46524 | -37.31503 | 5378 ft | 366 kts | 58° |
| 2026-05-01 10:49 | 28.47836 | -37.29020 | 5374 ft | 366 kts | 58° |
| 2026-05-01 10:49 | 28.49148 | -37.26537 | 5375 ft | 366 kts | 58° |
| 2026-05-01 10:50 | 28.50460 | -37.24052 | 5371 ft | 366 kts | 58° |
| 2026-05-01 10:50 | 28.51768 | -37.21572 | 5383 ft | 366 kts | 58° |
| 2026-05-01 10:50 | 28.53077 | -37.19091 | 5373 ft | 366 kts | 58° |
| 2026-05-01 10:50 | 28.54385 | -37.16610 | 5381 ft | 365 kts | 58° |
| 2026-05-01 10:51 | 28.55688 | -37.14135 | 5376 ft | 365 kts | 58° |
| 2026-05-01 10:51 | 28.56993 | -37.11657 | 5371 ft | 365 kts | 58° |
| 2026-05-01 10:51 | 28.58294 | -37.09184 | 5375 ft | 364 kts | 58° |
| 2026-05-01 10:51 | 28.59592 | -37.06713 | 5382 ft | 364 kts | 58° |
| 2026-05-01 10:52 | 28.60891 | -37.04243 | 5373 ft | 364 kts | 58° |
| 2026-05-01 10:52 | 28.62188 | -37.01772 | 5377 ft | 364 kts | 58° |
| 2026-05-01 10:52 | 28.63438 | -36.99390 | 5376 ft | 364 kts | 58° |
| 2026-05-01 10:52 | 28.64736 | -36.96917 | 5382 ft | 364 kts | 58° |
| 2026-05-01 10:53 | 28.66033 | -36.94443 | 5375 ft | 364 kts | 58° |
| 2026-05-01 10:53 | 28.67332 | -36.91963 | 5377 ft | 365 kts | 58° |
| 2026-05-01 10:53 | 28.68616 | -36.89513 | 5366 ft | 365 kts | 58° |
| 2026-05-01 10:53 | 28.69915 | -36.87029 | 5377 ft | 365 kts | 58° |
| 2026-05-01 10:54 | 28.71216 | -36.84541 | 5371 ft | 365 kts | 58° |
| 2026-05-01 10:54 | 28.72516 | -36.82055 | 5377 ft | 365 kts | 58° |
| 2026-05-01 10:54 | 28.73814 | -36.79571 | 5372 ft | 365 kts | 58° |
| 2026-05-01 10:54 | 28.75111 | -36.77085 | 5366 ft | 365 kts | 58° |
| 2026-05-01 10:55 | 28.76408 | -36.74598 | 5375 ft | 364 kts | 58° |
| 2026-05-01 10:55 | 28.77703 | -36.72116 | 5370 ft | 364 kts | 58° |
| 2026-05-01 10:55 | 28.78993 | -36.69640 | 5374 ft | 363 kts | 58° |
| 2026-05-01 10:55 | 28.80280 | -36.67169 | 5369 ft | 363 kts | 58° |
| 2026-05-01 10:56 | 28.81551 | -36.64727 | 5375 ft | 362 kts | 58° |
| 2026-05-01 10:56 | 28.82852 | -36.62225 | 5363 ft | 362 kts | 58° |
| 2026-05-01 10:56 | 28.84118 | -36.59790 | 5374 ft | 362 kts | 58° |
| 2026-05-01 10:56 | 28.85400 | -36.57323 | 5370 ft | 361 kts | 58° |
| 2026-05-01 10:57 | 28.86681 | -36.54857 | 5368 ft | 361 kts | 58° |
| 2026-05-01 10:57 | 28.87960 | -36.52392 | 5378 ft | 361 kts | 59° |
| 2026-05-01 10:57 | 28.89243 | -36.49919 | 5370 ft | 362 kts | 58° |
| 2026-05-01 10:57 | 28.90523 | -36.47449 | 5377 ft | 362 kts | 58° |
| 2026-05-01 10:58 | 28.91807 | -36.44971 | 5377 ft | 363 kts | 58° |
| 2026-05-01 10:58 | 28.93091 | -36.42490 | 5377 ft | 363 kts | 58° |
| 2026-05-01 10:58 | 28.94377 | -36.40004 | 5375 ft | 364 kts | 59° |
| 2026-05-01 10:58 | 28.95664 | -36.37515 | 5367 ft | 364 kts | 58° |
| 2026-05-01 10:59 | 28.96951 | -36.35025 | 5372 ft | 364 kts | 58° |
| 2026-05-01 10:59 | 28.98237 | -36.32535 | 5367 ft | 364 kts | 59° |
| 2026-05-01 10:59 | 28.99523 | -36.30043 | 5377 ft | 364 kts | 59° |
| 2026-05-01 10:59 | 29.00803 | -36.27560 | 5375 ft | 364 kts | 58° |
| 2026-05-01 11:00 | 29.02089 | -36.25067 | 5376 ft | 364 kts | 59° |
| 2026-05-01 11:00 | 29.03375 | -36.22572 | 5373 ft | 364 kts | 59° |
| 2026-05-01 11:00 | 29.04661 | -36.20073 | 5377 ft | 364 kts | 59° |
| 2026-05-01 11:00 | 29.05933 | -36.17602 | 5374 ft | 364 kts | 59° |
| 2026-05-01 11:01 | 29.07218 | -36.15102 | 5374 ft | 364 kts | 59° |
| 2026-05-01 11:01 | 29.08500 | -36.12607 | 5381 ft | 364 kts | 59° |
| 2026-05-01 11:01 | 29.09784 | -36.10109 | 5382 ft | 364 kts | 59° |
| 2026-05-01 11:01 | 29.11067 | -36.07610 | 5378 ft | 364 kts | 59° |
| 2026-05-01 11:02 | 29.12349 | -36.05111 | 5367 ft | 365 kts | 59° |
| 2026-05-01 11:02 | 29.13632 | -36.02609 | 5375 ft | 364 kts | 59° |
| 2026-05-01 11:02 | 29.14913 | -36.00108 | 5370 ft | 364 kts | 59° |
| 2026-05-01 11:02 | 29.16146 | -35.97701 | 5371 ft | 364 kts | 59° |
| 2026-05-01 11:03 | 29.17423 | -35.95205 | 5380 ft | 364 kts | 59° |
| 2026-05-01 11:03 | 29.18703 | -35.92703 | 5374 ft | 363 kts | 59° |
| 2026-05-01 11:03 | 29.19978 | -35.90207 | 5373 ft | 363 kts | 59° |
| 2026-05-01 11:03 | 29.21256 | -35.87706 | 5369 ft | 363 kts | 59° |
| 2026-05-01 11:04 | 29.22530 | -35.85210 | 5366 ft | 363 kts | 59° |
| 2026-05-01 11:04 | 29.23801 | -35.82718 | 5375 ft | 363 kts | 59° |
| 2026-05-01 11:04 | 29.25075 | -35.80220 | 5376 ft | 363 kts | 59° |
| 2026-05-01 11:04 | 29.26347 | -35.77723 | 5374 ft | 363 kts | 59° |
| 2026-05-01 11:05 | 29.27619 | -35.75226 | 5368 ft | 363 kts | 59° |
| 2026-05-01 11:05 | 29.28874 | -35.72761 | 5374 ft | 363 kts | 59° |
| 2026-05-01 11:05 | 29.30146 | -35.70260 | 5364 ft | 363 kts | 59° |
| 2026-05-01 11:05 | 29.31418 | -35.67757 | 5372 ft | 364 kts | 59° |
| 2026-05-01 11:06 | 29.32693 | -35.65248 | 5369 ft | 364 kts | 59° |
| 2026-05-01 11:06 | 29.33966 | -35.62740 | 5376 ft | 364 kts | 59° |
| 2026-05-01 11:06 | 29.35239 | -35.60231 | 5372 ft | 364 kts | 59° |
| 2026-05-01 11:07 | 29.37786 | -35.55207 | 5376 ft | 365 kts | 59° |
| 2026-05-01 11:07 | 29.39060 | -35.52691 | 5373 ft | 365 kts | 59° |
| 2026-05-01 11:07 | 29.40332 | -35.50178 | 5377 ft | 365 kts | 59° |
| 2026-05-01 11:07 | 29.41604 | -35.47664 | 5373 ft | 365 kts | 60° |
| 2026-05-01 11:08 | 29.42876 | -35.45147 | 5374 ft | 365 kts | 60° |
| 2026-05-01 11:08 | 29.44148 | -35.42630 | 5368 ft | 365 kts | 60° |
| 2026-05-01 11:08 | 29.46689 | -35.37595 | 5375 ft | 364 kts | 59° |
| 2026-05-01 11:09 | 29.47956 | -35.35082 | 5372 ft | 364 kts | 60° |
| 2026-05-01 11:09 | 29.49222 | -35.32568 | 5380 ft | 364 kts | 59° |
| 2026-05-01 11:09 | 29.50489 | -35.30053 | 5384 ft | 364 kts | 60° |
| 2026-05-01 11:10 | 29.53026 | -35.25013 | 5370 ft | 365 kts | 60° |
| 2026-05-01 11:10 | 29.54295 | -35.22488 | 5375 ft | 365 kts | 60° |
| 2026-05-01 11:10 | 29.55564 | -35.19962 | 5362 ft | 365 kts | 60° |
| 2026-05-01 11:10 | 29.56830 | -35.17441 | 5377 ft | 365 kts | 60° |
| 2026-05-01 11:11 | 29.58098 | -35.14912 | 5377 ft | 365 kts | 59° |
| 2026-05-01 11:11 | 29.59367 | -35.12381 | 5371 ft | 366 kts | 60° |
| 2026-05-01 11:11 | 29.60635 | -35.09850 | 5366 ft | 365 kts | 59° |
| 2026-05-01 11:11 | 29.61902 | -35.07320 | 5372 ft | 366 kts | 60° |
| 2026-05-01 11:12 | 29.63170 | -35.04786 | 5365 ft | 366 kts | 60° |
| 2026-05-01 11:12 | 29.64440 | -35.02247 | 5371 ft | 365 kts | 60° |
| 2026-05-01 11:12 | 29.65658 | -34.99811 | 5365 ft | 365 kts | 60° |
| 2026-05-01 11:12 | 29.66924 | -34.97277 | 5367 ft | 365 kts | 60° |
| 2026-05-01 11:13 | 29.68186 | -34.94748 | 5379 ft | 364 kts | 60° |
| 2026-05-01 11:13 | 29.69430 | -34.92255 | 5377 ft | 364 kts | 60° |
| 2026-05-01 11:13 | 29.70690 | -34.89729 | 5366 ft | 364 kts | 60° |
| 2026-05-01 11:13 | 29.71949 | -34.87202 | 5376 ft | 364 kts | 60° |
| 2026-05-01 11:14 | 29.73207 | -34.84676 | 5368 ft | 363 kts | 60° |
| 2026-05-01 11:14 | 29.74462 | -34.82153 | 5376 ft | 363 kts | 60° |
| 2026-05-01 11:14 | 29.75715 | -34.79633 | 5365 ft | 363 kts | 60° |
| 2026-05-01 11:14 | 29.76968 | -34.77112 | 5366 ft | 363 kts | 60° |
| 2026-05-01 11:15 | 29.78220 | -34.74592 | 5368 ft | 363 kts | 60° |
| 2026-05-01 11:15 | 29.79469 | -34.72075 | 5377 ft | 362 kts | 60° |
| 2026-05-01 11:15 | 29.80721 | -34.69553 | 5370 ft | 363 kts | 60° |
| 2026-05-01 11:15 | 29.81971 | -34.67031 | 5376 ft | 363 kts | 60° |
| 2026-05-01 11:16 | 29.83223 | -34.64504 | 5376 ft | 363 kts | 60° |
| 2026-05-01 11:16 | 29.84478 | -34.61970 | 5367 ft | 364 kts | 60° |
| 2026-05-01 11:16 | 29.85730 | -34.59439 | 5380 ft | 364 kts | 60° |
| 2026-05-01 11:16 | 29.86983 | -34.56905 | 5368 ft | 364 kts | 60° |
| 2026-05-01 11:17 | 29.88237 | -34.54368 | 5378 ft | 364 kts | 60° |
| 2026-05-01 11:17 | 29.89488 | -34.51833 | 5387 ft | 365 kts | 60° |
| 2026-05-01 11:17 | 29.90745 | -34.49289 | 5376 ft | 365 kts | 60° |
| 2026-05-01 11:17 | 29.92000 | -34.46744 | 5374 ft | 365 kts | 60° |
| 2026-05-01 11:18 | 29.93255 | -34.44198 | 5373 ft | 366 kts | 60° |
| 2026-05-01 11:18 | 29.94512 | -34.41647 | 5366 ft | 365 kts | 60° |
| 2026-05-01 11:18 | 29.95764 | -34.39104 | 5380 ft | 365 kts | 60° |
| 2026-05-01 11:18 | 29.97015 | -34.36560 | 5373 ft | 365 kts | 60° |
| 2026-05-01 11:19 | 29.98269 | -34.34011 | 5373 ft | 365 kts | 60° |
| 2026-05-01 11:19 | 29.99520 | -34.31464 | 5376 ft | 365 kts | 60° |
| 2026-05-01 11:19 | 30.00768 | -34.28921 | 5380 ft | 365 kts | 60° |
| 2026-05-01 11:19 | 30.02019 | -34.26373 | 5377 ft | 365 kts | 60° |
| 2026-05-01 11:20 | 30.03268 | -34.23825 | 5376 ft | 365 kts | 60° |
| 2026-05-01 11:20 | 30.04518 | -34.21276 | 5370 ft | 364 kts | 60° |
| 2026-05-01 11:20 | 30.05765 | -34.18728 | 5376 ft | 364 kts | 60° |
| 2026-05-01 11:20 | 30.07012 | -34.16181 | 5377 ft | 364 kts | 60° |
| 2026-05-01 11:21 | 30.08255 | -34.13639 | 5389 ft | 364 kts | 60° |
| 2026-05-01 11:21 | 30.09485 | -34.11125 | 5371 ft | 364 kts | 60° |
| 2026-05-01 11:21 | 30.10729 | -34.08576 | 5381 ft | 364 kts | 60° |
| 2026-05-01 11:21 | 30.11973 | -34.06029 | 5387 ft | 364 kts | 60° |
| 2026-05-01 11:22 | 30.13216 | -34.03481 | 5372 ft | 365 kts | 60° |
| 2026-05-01 11:22 | 30.14461 | -34.00927 | 5384 ft | 365 kts | 60° |
| 2026-05-01 11:22 | 30.15659 | -33.98469 | 5386 ft | 366 kts | 60° |
| 2026-05-01 11:22 | 30.16503 | -33.96736 | 5375 ft | 366 kts | 60° |
| 2026-05-01 11:23 | 30.18154 | -33.93344 | 5370 ft | 366 kts | 60° |
| 2026-05-01 11:23 | 30.18996 | -33.91612 | 5384 ft | 365 kts | 60° |
| 2026-05-01 11:23 | 30.20240 | -33.89052 | 5374 ft | 365 kts | 60° |
| 2026-05-01 11:23 | 30.21483 | -33.86494 | 5379 ft | 365 kts | 60° |
| 2026-05-01 11:24 | 30.22722 | -33.83943 | 5379 ft | 364 kts | 60° |
| 2026-05-01 11:24 | 30.23962 | -33.81385 | 5375 ft | 364 kts | 60° |
| 2026-05-01 11:24 | 30.26439 | -33.76275 | 5373 ft | 364 kts | 60° |
| 2026-05-01 11:25 | 30.27674 | -33.73724 | 5370 ft | 364 kts | 60° |
| 2026-05-01 11:25 | 30.30132 | -33.68643 | 5377 ft | 365 kts | 60° |
| 2026-05-01 11:25 | 30.31374 | -33.66074 | 5373 ft | 365 kts | 61° |
| 2026-05-01 11:26 | 30.32610 | -33.63514 | 5378 ft | 364 kts | 60° |
| 2026-05-01 11:26 | 30.35082 | -33.58389 | 5375 ft | 365 kts | 60° |
| 2026-05-01 11:26 | 30.36318 | -33.55825 | 5370 ft | 365 kts | 60° |
| 2026-05-01 11:27 | 30.37555 | -33.53257 | 5381 ft | 364 kts | 60° |
| 2026-05-01 11:27 | 30.38788 | -33.50694 | 5377 ft | 364 kts | 60° |
| 2026-05-01 11:27 | 30.40022 | -33.48129 | 5383 ft | 364 kts | 60° |
| 2026-05-01 11:27 | 30.41257 | -33.45560 | 5385 ft | 365 kts | 60° |
| 2026-05-01 11:28 | 30.42491 | -33.42991 | 5380 ft | 365 kts | 60° |
| 2026-05-01 11:28 | 30.43727 | -33.40418 | 5371 ft | 365 kts | 60° |
| 2026-05-01 11:28 | 30.44963 | -33.37841 | 5385 ft | 365 kts | 61° |
| 2026-05-01 11:29 | 30.47417 | -33.32721 | 5373 ft | 366 kts | 61° |
| 2026-05-01 11:29 | 30.48654 | -33.30139 | 5380 ft | 366 kts | 61° |
| 2026-05-01 11:29 | 30.51115 | -33.24991 | 5391 ft | 365 kts | 61° |
| 2026-05-01 11:30 | 30.52346 | -33.22412 | 5398 ft | 366 kts | 61° |
| 2026-05-01 11:30 | 30.53582 | -33.19824 | 5371 ft | 367 kts | 61° |
| 2026-05-01 11:30 | 30.54818 | -33.17238 | 5395 ft | 366 kts | 61° |
| 2026-05-01 11:30 | 30.56051 | -33.14655 | 5380 ft | 366 kts | 62° |
| 2026-05-01 11:31 | 30.57283 | -33.12069 | 5375 ft | 365 kts | 61° |
| 2026-05-01 11:31 | 30.58509 | -33.09494 | 5374 ft | 364 kts | 61° |
| 2026-05-01 11:31 | 30.59729 | -33.06930 | 5380 ft | 362 kts | 61° |
| 2026-05-01 11:31 | 30.60946 | -33.04372 | 5381 ft | 362 kts | 61° |
| 2026-05-01 11:32 | 30.62161 | -33.01815 | 5380 ft | 361 kts | 61° |
| 2026-05-01 11:32 | 30.63326 | -32.99362 | 5391 ft | 360 kts | 61° |
| 2026-05-01 11:32 | 30.64538 | -32.96810 | 5390 ft | 361 kts | 61° |
| 2026-05-01 11:32 | 30.65751 | -32.94252 | 5395 ft | 362 kts | 61° |
| 2026-05-01 11:33 | 30.66966 | -32.91689 | 5388 ft | 363 kts | 61° |
| 2026-05-01 11:33 | 30.68185 | -32.89116 | 5387 ft | 364 kts | 61° |
| 2026-05-01 11:33 | 30.69405 | -32.86538 | 5403 ft | 364 kts | 61° |
| 2026-05-01 11:33 | 30.70609 | -32.83992 | 5388 ft | 364 kts | 62° |
| 2026-05-01 11:34 | 30.71830 | -32.81412 | 5391 ft | 364 kts | 62° |
| 2026-05-01 11:34 | 30.73046 | -32.78837 | 5388 ft | 364 kts | 62° |
| 2026-05-01 11:34 | 30.74268 | -32.76251 | 5408 ft | 366 kts | 62° |
| 2026-05-01 11:34 | 30.75496 | -32.73652 | 5358 ft | 366 kts | 61° |
| 2026-05-01 11:35 | 30.76717 | -32.71061 | 5392 ft | 365 kts | 62° |
| 2026-05-01 11:35 | 30.77931 | -32.68482 | 5382 ft | 363 kts | 62° |
| 2026-05-01 11:35 | 30.79141 | -32.65912 | 5390 ft | 361 kts | 62° |
| 2026-05-01 11:35 | 30.80345 | -32.63352 | 5390 ft | 360 kts | 62° |
| 2026-05-01 11:36 | 30.81546 | -32.60798 | 5388 ft | 360 kts | 62° |
| 2026-05-01 11:36 | 30.82746 | -32.58246 | 5386 ft | 359 kts | 62° |
| 2026-05-01 11:36 | 30.83942 | -32.55699 | 5387 ft | 359 kts | 62° |
| 2026-05-01 11:36 | 30.85139 | -32.53148 | 5400 ft | 359 kts | 62° |
| 2026-05-01 11:37 | 30.86340 | -32.50584 | 5412 ft | 363 kts | 62° |
| 2026-05-01 11:37 | 30.87548 | -32.48005 | 5385 ft | 363 kts | 61° |
| 2026-05-01 11:37 | 30.88764 | -32.45416 | 5393 ft | 363 kts | 62° |
| 2026-05-01 11:37 | 30.89973 | -32.42835 | 5392 ft | 363 kts | 62° |
| 2026-05-01 11:38 | 30.91177 | -32.40259 | 5390 ft | 362 kts | 62° |
| 2026-05-01 11:38 | 30.92378 | -32.37689 | 5386 ft | 361 kts | 62° |
| 2026-05-01 11:38 | 30.93580 | -32.35117 | 5395 ft | 361 kts | 62° |
| 2026-05-01 11:38 | 30.94780 | -32.32543 | 5428 ft | 362 kts | 62° |
| 2026-05-01 11:39 | 30.95967 | -32.29988 | 5412 ft | 365 kts | 62° |
| 2026-05-01 11:39 | 30.97171 | -32.27406 | 5351 ft | 360 kts | 61° |
| 2026-05-01 11:39 | 30.98362 | -32.24860 | 5391 ft | 357 kts | 62° |
| 2026-05-01 11:39 | 30.99552 | -32.22306 | 5401 ft | 360 kts | 62° |
| 2026-05-01 11:40 | 31.00745 | -32.19741 | 5397 ft | 362 kts | 62° |
| 2026-05-01 11:40 | 31.01947 | -32.17155 | 5400 ft | 363 kts | 62° |
| 2026-05-01 11:40 | 31.03152 | -32.14561 | 5394 ft | 364 kts | 62° |
| 2026-05-01 11:40 | 31.04354 | -32.11973 | 5400 ft | 363 kts | 62° |
| 2026-05-01 11:41 | 31.05557 | -32.09379 | 5391 ft | 363 kts | 62° |
| 2026-05-01 11:41 | 31.06756 | -32.06793 | 5400 ft | 362 kts | 62° |
| 2026-05-01 11:41 | 31.07953 | -32.04209 | 5409 ft | 362 kts | 62° |
| 2026-05-01 11:41 | 31.09147 | -32.01609 | 5453 ft | 366 kts | 63° |
| 2026-05-01 11:42 | 31.10312 | -31.99077 | 5342 ft | 364 kts | 62° |
| 2026-05-01 11:42 | 31.11506 | -31.96518 | 5390 ft | 355 kts | 62° |
| 2026-05-01 11:42 | 31.12682 | -31.93989 | 5402 ft | 356 kts | 62° |
| 2026-05-01 11:42 | 31.13867 | -31.91431 | 5407 ft | 360 kts | 62° |
| 2026-05-01 11:43 | 31.15058 | -31.88851 | 5404 ft | 361 kts | 62° |
| 2026-05-01 11:43 | 31.16250 | -31.86264 | 5408 ft | 361 kts | 62° |
| 2026-05-01 11:43 | 31.17436 | -31.83686 | 5407 ft | 360 kts | 62° |
| 2026-05-01 11:44 | 31.19790 | -31.78570 | 5401 ft | 360 kts | 62° |
| 2026-05-01 11:44 | 31.20972 | -31.75997 | 5397 ft | 359 kts | 62° |
| 2026-05-01 11:44 | 31.22154 | -31.73425 | 5406 ft | 359 kts | 62° |
| 2026-05-01 11:44 | 31.23335 | -31.70853 | 5403 ft | 359 kts | 62° |
| 2026-05-01 11:45 | 31.24516 | -31.68280 | 5407 ft | 359 kts | 62° |
| 2026-05-01 11:45 | 31.25698 | -31.65702 | 5431 ft | 360 kts | 62° |
| 2026-05-01 11:45 | 31.26888 | -31.63112 | 5444 ft | 362 kts | 62° |
| 2026-05-01 11:45 | 31.28075 | -31.60524 | 5461 ft | 359 kts | 62° |
| 2026-05-01 11:46 | 31.29239 | -31.57952 | 5407 ft | 358 kts | 63° |
| 2026-05-01 11:46 | 31.30401 | -31.55383 | 5357 ft | 355 kts | 63° |
| 2026-05-01 11:46 | 31.31560 | -31.52858 | 5362 ft | 352 kts | 62° |
| 2026-05-01 11:46 | 31.32733 | -31.50320 | 5419 ft | 356 kts | 62° |
| 2026-05-01 11:47 | 31.33915 | -31.47751 | 5413 ft | 359 kts | 62° |
| 2026-05-01 11:47 | 31.35093 | -31.45173 | 5408 ft | 359 kts | 62° |
| 2026-05-01 11:47 | 31.36266 | -31.42598 | 5409 ft | 358 kts | 62° |
| 2026-05-01 11:47 | 31.37423 | -31.40056 | 5423 ft | 358 kts | 63° |
| 2026-05-01 11:48 | 31.38595 | -31.37477 | 5440 ft | 359 kts | 63° |
| 2026-05-01 11:48 | 31.39765 | -31.34892 | 5404 ft | 360 kts | 63° |
| 2026-05-01 11:48 | 31.40937 | -31.32313 | 5409 ft | 358 kts | 62° |
| 2026-05-01 11:48 | 31.42106 | -31.29741 | 5418 ft | 357 kts | 62° |
| 2026-05-01 11:49 | 31.43273 | -31.27170 | 5450 ft | 359 kts | 62° |
| 2026-05-01 11:49 | 31.44448 | -31.24583 | 5409 ft | 359 kts | 63° |
| 2026-05-01 11:49 | 31.45615 | -31.22010 | 5370 ft | 356 kts | 63° |
| 2026-05-01 11:49 | 31.46768 | -31.19462 | 5412 ft | 354 kts | 63° |
| 2026-05-01 11:50 | 31.47924 | -31.16907 | 5413 ft | 355 kts | 63° |
| 2026-05-01 11:50 | 31.49084 | -31.14343 | 5423 ft | 356 kts | 63° |
| 2026-05-01 11:50 | 31.50244 | -31.11776 | 5412 ft | 357 kts | 63° |
| 2026-05-01 11:50 | 31.51409 | -31.09198 | 5423 ft | 358 kts | 62° |
| 2026-05-01 11:51 | 31.52573 | -31.06619 | 5424 ft | 359 kts | 62° |
| 2026-05-01 11:51 | 31.53747 | -31.04012 | 5394 ft | 362 kts | 63° |
| 2026-05-01 11:51 | 31.54913 | -31.01425 | 5418 ft | 357 kts | 62° |
| 2026-05-01 11:51 | 31.56028 | -30.98953 | 5423 ft | 356 kts | 63° |
| 2026-05-01 11:52 | 31.57188 | -30.96377 | 5418 ft | 358 kts | 62° |
| 2026-05-01 11:52 | 31.58338 | -30.93823 | 5413 ft | 359 kts | 62° |
| 2026-05-01 11:52 | 31.59517 | -30.91201 | 5419 ft | 359 kts | 63° |
| 2026-05-01 11:52 | 31.60685 | -30.88602 | 5426 ft | 360 kts | 63° |
| 2026-05-01 11:53 | 31.61851 | -30.86002 | 5431 ft | 362 kts | 63° |
| 2026-05-01 11:53 | 31.63022 | -30.83392 | 5425 ft | 361 kts | 63° |
| 2026-05-01 11:53 | 31.64177 | -30.80817 | 5419 ft | 360 kts | 63° |
| 2026-05-01 11:53 | 31.65340 | -30.78221 | 5418 ft | 359 kts | 63° |
| 2026-05-01 11:54 | 31.66497 | -30.75639 | 5421 ft | 357 kts | 63° |
| 2026-05-01 11:54 | 31.67652 | -30.73055 | 5423 ft | 356 kts | 63° |
| 2026-05-01 11:54 | 31.68802 | -30.70484 | 5422 ft | 355 kts | 63° |
| 2026-05-01 11:54 | 31.69950 | -30.67915 | 5415 ft | 354 kts | 63° |
| 2026-05-01 11:55 | 31.71091 | -30.65358 | 5431 ft | 353 kts | 63° |
| 2026-05-01 11:55 | 31.72229 | -30.62805 | 5433 ft | 353 kts | 63° |
| 2026-05-01 11:55 | 31.73370 | -30.60247 | 5433 ft | 353 kts | 63° |
| 2026-05-01 11:55 | 31.74507 | -30.57694 | 5433 ft | 353 kts | 63° |
| 2026-05-01 11:56 | 31.75645 | -30.55138 | 5430 ft | 353 kts | 63° |
| 2026-05-01 11:56 | 31.76781 | -30.52584 | 5431 ft | 353 kts | 63° |
| 2026-05-01 11:56 | 31.77919 | -30.50025 | 5438 ft | 353 kts | 63° |
| 2026-05-01 11:56 | 31.79056 | -30.47464 | 5437 ft | 353 kts | 63° |
| 2026-05-01 11:57 | 31.80193 | -30.44903 | 5438 ft | 354 kts | 63° |
| 2026-05-01 11:57 | 31.80946 | -30.43206 | 5432 ft | 354 kts | 63° |
| 2026-05-01 11:57 | 31.82471 | -30.39769 | 5425 ft | 354 kts | 63° |
| 2026-05-01 11:57 | 31.83608 | -30.37201 | 5438 ft | 354 kts | 63° |
| 2026-05-01 11:58 | 31.84744 | -30.34636 | 5429 ft | 353 kts | 63° |
| 2026-05-01 11:58 | 31.85876 | -30.32080 | 5428 ft | 352 kts | 63° |
| 2026-05-01 11:58 | 31.88118 | -30.27004 | 5436 ft | 350 kts | 63° |
| 2026-05-01 11:59 | 31.89238 | -30.24466 | 5442 ft | 350 kts | 63° |
| 2026-05-01 11:59 | 31.90359 | -30.21925 | 5442 ft | 349 kts | 63° |
| 2026-05-01 11:59 | 31.91478 | -30.19386 | 5438 ft | 350 kts | 63° |
| 2026-05-01 12:00 | 31.93730 | -30.14274 | 5459 ft | 354 kts | 63° |
| 2026-05-01 12:00 | 31.94867 | -30.11689 | 5449 ft | 357 kts | 63° |
| 2026-05-01 12:00 | 31.97127 | -30.06552 | 5420 ft | 349 kts | 63° |
| 2026-05-01 12:01 | 31.98240 | -30.04013 | 5434 ft | 350 kts | 63° |
| 2026-05-01 12:01 | 31.99359 | -30.01463 | 5438 ft | 351 kts | 63° |
| 2026-05-01 12:01 | 32.00428 | -29.99005 | 5447 ft | 351 kts | 64° |
| 2026-05-01 12:01 | 32.01499 | -29.96414 | 5448 ft | 352 kts | 65° |
| 2026-05-01 12:02 | 32.02550 | -29.93808 | 5447 ft | 352 kts | 65° |
| 2026-05-01 12:02 | 32.03597 | -29.91196 | 5442 ft | 353 kts | 65° |
| 2026-05-01 12:02 | 32.04645 | -29.88582 | 5440 ft | 352 kts | 65° |
| 2026-05-01 12:02 | 32.05693 | -29.85970 | 5452 ft | 352 kts | 65° |
| 2026-05-01 12:03 | 32.06742 | -29.83359 | 5451 ft | 352 kts | 65° |
| 2026-05-01 12:03 | 32.07792 | -29.80749 | 5438 ft | 352 kts | 66° |
| 2026-05-01 12:03 | 32.08841 | -29.78142 | 5440 ft | 351 kts | 66° |
| 2026-05-01 12:03 | 32.09887 | -29.75542 | 5446 ft | 351 kts | 66° |
| 2026-05-01 12:04 | 32.10931 | -29.72948 | 5447 ft | 350 kts | 66° |
| 2026-05-01 12:04 | 32.11976 | -29.70349 | 5449 ft | 350 kts | 66° |
| 2026-05-01 12:04 | 32.13017 | -29.67759 | 5450 ft | 349 kts | 66° |
| 2026-05-01 12:04 | 32.14057 | -29.65168 | 5455 ft | 349 kts | 65° |
| 2026-05-01 12:05 | 32.15097 | -29.62577 | 5453 ft | 349 kts | 66° |
| 2026-05-01 12:05 | 32.17177 | -29.57391 | 5451 ft | 350 kts | 66° |
| 2026-05-01 12:05 | 32.18217 | -29.54795 | 5454 ft | 350 kts | 66° |
| 2026-05-01 12:06 | 32.19243 | -29.52230 | 5456 ft | 350 kts | 66° |
| 2026-05-01 12:06 | 32.20284 | -29.49626 | 5450 ft | 350 kts | 65° |
| 2026-05-01 12:06 | 32.21320 | -29.47033 | 5455 ft | 350 kts | 66° |
| 2026-05-01 12:06 | 32.22358 | -29.44434 | 5464 ft | 350 kts | 66° |
| 2026-05-01 12:07 | 32.23396 | -29.41834 | 5472 ft | 351 kts | 65° |
| 2026-05-01 12:07 | 32.24436 | -29.39224 | 5457 ft | 351 kts | 66° |
| 2026-05-01 12:07 | 32.25477 | -29.36612 | 5460 ft | 352 kts | 66° |
| 2026-05-01 12:07 | 32.26519 | -29.33995 | 5456 ft | 352 kts | 66° |
| 2026-05-01 12:08 | 32.27557 | -29.31385 | 5476 ft | 352 kts | 66° |
| 2026-05-01 12:08 | 32.28600 | -29.28762 | 5456 ft | 352 kts | 66° |
| 2026-05-01 12:08 | 32.29303 | -29.26992 | 5463 ft | 352 kts | 66° |
| 2026-05-01 12:08 | 32.30328 | -29.24412 | 5452 ft | 351 kts | 66° |
| 2026-05-01 12:09 | 32.31360 | -29.21809 | 5479 ft | 350 kts | 66° |
| 2026-05-01 12:09 | 32.32395 | -29.19199 | 5451 ft | 350 kts | 66° |
| 2026-05-01 12:09 | 32.33426 | -29.16598 | 5457 ft | 348 kts | 66° |
| 2026-05-01 12:09 | 32.34449 | -29.14014 | 5453 ft | 346 kts | 66° |
| 2026-05-01 12:10 | 32.35468 | -29.11440 | 5458 ft | 345 kts | 66° |
| 2026-05-01 12:10 | 32.37498 | -29.06298 | 5473 ft | 345 kts | 66° |
| 2026-05-01 12:10 | 32.38516 | -29.03719 | 5474 ft | 347 kts | 66° |
| 2026-05-01 12:11 | 32.40527 | -28.98618 | 5465 ft | 349 kts | 66° |
| 2026-05-01 12:11 | 32.41553 | -28.96016 | 5469 ft | 349 kts | 66° |
| 2026-05-01 12:11 | 32.42580 | -28.93406 | 5470 ft | 349 kts | 66° |
| 2026-05-01 12:12 | 32.43605 | -28.90800 | 5467 ft | 349 kts | 66° |
| 2026-05-01 12:12 | 32.44629 | -28.88195 | 5467 ft | 349 kts | 66° |
| 2026-05-01 12:12 | 32.45652 | -28.85589 | 5472 ft | 348 kts | 66° |
| 2026-05-01 12:12 | 32.46672 | -28.82989 | 5476 ft | 348 kts | 66° |
| 2026-05-01 12:13 | 32.47692 | -28.80387 | 5466 ft | 348 kts | 66° |
| 2026-05-01 12:13 | 32.48696 | -28.77825 | 5465 ft | 347 kts | 66° |
| 2026-05-01 12:13 | 32.49714 | -28.75225 | 5469 ft | 347 kts | 66° |
| 2026-05-01 12:13 | 32.50728 | -28.72631 | 5470 ft | 347 kts | 66° |
| 2026-05-01 12:14 | 32.51743 | -28.70036 | 5481 ft | 347 kts | 66° |
| 2026-05-01 12:14 | 32.52436 | -28.68260 | 5503 ft | 349 kts | 66° |
| 2026-05-01 12:14 | 32.53451 | -28.65659 | 5469 ft | 352 kts | 67° |
| 2026-05-01 12:14 | 32.54477 | -28.63023 | 5467 ft | 351 kts | 66° |
| 2026-05-01 12:15 | 32.55501 | -28.60400 | 5476 ft | 350 kts | 66° |
| 2026-05-01 12:15 | 32.56487 | -28.57871 | 5476 ft | 350 kts | 66° |
| 2026-05-01 12:15 | 32.57504 | -28.55262 | 5469 ft | 348 kts | 66° |
| 2026-05-01 12:15 | 32.58517 | -28.52657 | 5472 ft | 348 kts | 66° |
| 2026-05-01 12:16 | 32.59514 | -28.50092 | 5474 ft | 347 kts | 66° |
| 2026-05-01 12:16 | 32.60524 | -28.47492 | 5486 ft | 347 kts | 66° |
| 2026-05-01 12:16 | 32.61533 | -28.44891 | 5485 ft | 347 kts | 66° |
| 2026-05-01 12:16 | 32.62542 | -28.42288 | 5479 ft | 347 kts | 66° |
| 2026-05-01 12:17 | 32.63551 | -28.39684 | 5485 ft | 347 kts | 66° |
| 2026-05-01 12:17 | 32.64559 | -28.37075 | 5489 ft | 349 kts | 66° |
| 2026-05-01 12:17 | 32.65575 | -28.34449 | 5488 ft | 350 kts | 66° |
| 2026-05-01 12:17 | 32.66593 | -28.31820 | 5490 ft | 351 kts | 66° |
| 2026-05-01 12:18 | 32.67613 | -28.29182 | 5478 ft | 352 kts | 67° |
| 2026-05-01 12:18 | 32.68636 | -28.26534 | 5498 ft | 358 kts | 67° |
| 2026-05-01 12:18 | 32.69690 | -28.23795 | 5507 ft | 370 kts | 66° |
| 2026-05-01 12:18 | 32.70757 | -28.21025 | 5500 ft | 369 kts | 66° |
| 2026-05-01 12:19 | 32.71827 | -28.18248 | 5499 ft | 371 kts | 67° |
| 2026-05-01 12:19 | 32.72897 | -28.15466 | 5767 ft | 369 kts | 66° |
| 2026-05-01 12:19 | 32.73971 | -28.12673 | 6255 ft | 375 kts | 66° |
| 2026-05-01 12:19 | 32.75058 | -28.09844 | 6690 ft | 380 kts | 66° |
| 2026-05-01 12:20 | 32.76158 | -28.06978 | 7132 ft | 383 kts | 66° |
| 2026-05-01 12:20 | 32.77265 | -28.04089 | 7602 ft | 386 kts | 66° |
| 2026-05-01 12:20 | 32.78381 | -28.01178 | 8070 ft | 389 kts | 65° |
| 2026-05-01 12:20 | 32.79449 | -27.98391 | 8565 ft | 390 kts | 65° |
| 2026-05-01 12:21 | 32.80567 | -27.95467 | 9267 ft | 390 kts | 65° |
| 2026-05-01 12:21 | 32.81696 | -27.92515 | 10058 ft | 394 kts | 65° |
| 2026-05-01 12:21 | 32.82834 | -27.89537 | 10762 ft | 397 kts | 65° |
| 2026-05-01 12:21 | 32.83979 | -27.86535 | 11488 ft | 401 kts | 65° |
| 2026-05-01 12:22 | 32.85136 | -27.83500 | 12217 ft | 403 kts | 65° |
| 2026-05-01 12:22 | 32.86295 | -27.80455 | 12980 ft | 405 kts | 65° |
| 2026-05-01 12:22 | 32.87460 | -27.77393 | 13749 ft | 407 kts | 65° |
| 2026-05-01 12:22 | 32.88624 | -27.74329 | 14449 ft | 408 kts | 65° |
| 2026-05-01 12:23 | 32.89778 | -27.71290 | 15149 ft | 408 kts | 65° |
| 2026-05-01 12:23 | 32.90946 | -27.68212 | 15862 ft | 407 kts | 65° |
| 2026-05-01 12:23 | 32.92109 | -27.65147 | 16601 ft | 406 kts | 65° |
| 2026-05-01 12:23 | 32.93269 | -27.62083 | 17333 ft | 405 kts | 65° |
| 2026-05-01 12:24 | 32.94421 | -27.59039 | 18091 ft | 402 kts | 64° |
| 2026-05-01 12:24 | 32.95562 | -27.56018 | 18794 ft | 398 kts | 64° |
| 2026-05-01 12:24 | 32.96694 | -27.53021 | 19468 ft | 394 kts | 64° |
| 2026-05-01 12:24 | 32.97809 | -27.50065 | 20147 ft | 389 kts | 64° |
| 2026-05-01 12:25 | 32.98908 | -27.47150 | 20842 ft | 383 kts | 64° |
| 2026-05-01 12:25 | 33.01039 | -27.41488 | 22247 ft | 366 kts | 64° |
| 2026-05-01 12:25 | 33.02064 | -27.38758 | 22955 ft | 355 kts | 64° |
| 2026-05-01 12:26 | 33.03062 | -27.36101 | 23504 ft | 350 kts | 64° |
| 2026-05-01 12:26 | 33.05107 | -27.30667 | 23609 ft | 371 kts | 64° |
| 2026-05-01 12:26 | 33.06161 | -27.27860 | 23926 ft | 369 kts | 64° |
| 2026-05-01 12:27 | 33.07199 | -27.25088 | 24358 ft | 365 kts | 64° |
| 2026-05-01 12:27 | 33.09301 | -27.19475 | 24610 ft | 378 kts | 64° |
| 2026-05-01 12:28 | 33.11423 | -27.13791 | 25255 ft | 376 kts | 64° |
| 2026-05-01 12:28 | 33.12484 | -27.10949 | 25329 ft | 383 kts | 64° |
| 2026-05-01 12:28 | 33.14617 | -27.05221 | 25960 ft | 380 kts | 64° |
| 2026-05-01 12:29 | 33.15623 | -27.02517 | 26144 ft | 383 kts | 64° |
| 2026-05-01 12:29 | 33.16587 | -26.99926 | 26226 ft | 388 kts | 64° |
| 2026-05-01 12:29 | 33.18406 | -26.95029 | 26703 ft | 387 kts | 64° |
| 2026-05-01 12:30 | 33.20183 | -26.90237 | 26927 ft | 394 kts | 64° |
| 2026-05-01 12:30 | 33.20987 | -26.88067 | 27086 ft | 395 kts | 64° |
| 2026-05-01 12:30 | 33.21828 | -26.85793 | 27309 ft | 395 kts | 64° |
| 2026-05-01 12:31 | 33.22579 | -26.83761 | 27464 ft | 396 kts | 64° |
| 2026-05-01 12:31 | 33.23307 | -26.81792 | 27580 ft | 398 kts | 64° |
| 2026-05-01 12:31 | 33.24085 | -26.79685 | 27697 ft | 401 kts | 64° |
| 2026-05-01 12:31 | 33.24795 | -26.77762 | 27825 ft | 402 kts | 64° |
| 2026-05-01 12:32 | 33.25483 | -26.75898 | 27995 ft | 402 kts | 64° |
| 2026-05-01 12:32 | 33.26777 | -26.72388 | 28256 ft | 404 kts | 64° |
| 2026-05-01 12:32 | 33.27482 | -26.70475 | 28353 ft | 407 kts | 64° |
| 2026-05-01 12:33 | 33.28690 | -26.67195 | 28552 ft | 409 kts | 64° |
| 2026-05-01 12:33 | 33.29306 | -26.65519 | 28694 ft | 409 kts | 64° |
| 2026-05-01 12:33 | 33.29929 | -26.63825 | 28832 ft | 410 kts | 64° |
| 2026-05-01 12:34 | 33.30548 | -26.62139 | 28953 ft | 411 kts | 64° |
| 2026-05-01 12:34 | 33.31175 | -26.60431 | 29057 ft | 412 kts | 64° |
| 2026-05-01 12:34 | 33.32351 | -26.57228 | 29238 ft | 415 kts | 64° |
| 2026-05-01 12:35 | 33.32950 | -26.55596 | 29345 ft | 416 kts | 64° |
| 2026-05-01 12:35 | 33.33561 | -26.53929 | 29456 ft | 417 kts | 64° |
| 2026-05-01 12:35 | 33.34125 | -26.52390 | 29557 ft | 418 kts | 64° |
| 2026-05-01 12:35 | 33.34713 | -26.50785 | 29655 ft | 419 kts | 64° |
| 2026-05-01 12:36 | 33.35875 | -26.47613 | 29859 ft | 421 kts | 64° |
| 2026-05-01 12:36 | 33.36942 | -26.44696 | 30056 ft | 423 kts | 64° |
| 2026-05-01 12:37 | 33.38022 | -26.41738 | 30224 ft | 425 kts | 64° |
| 2026-05-01 12:37 | 33.39121 | -26.38725 | 30393 ft | 427 kts | 64° |
| 2026-05-01 12:38 | 33.40125 | -26.35971 | 30558 ft | 428 kts | 64° |
| 2026-05-01 12:38 | 33.41324 | -26.32685 | 30612 ft | 437 kts | 64° |
| 2026-05-01 12:38 | 33.42559 | -26.29298 | 30511 ft | 452 kts | 64° |
| 2026-05-01 12:38 | 33.43836 | -26.25796 | 30450 ft | 466 kts | 65° |
| 2026-05-01 12:39 | 33.45146 | -26.22193 | 30505 ft | 477 kts | 65° |
| 2026-05-01 12:39 | 33.46481 | -26.18515 | 30593 ft | 486 kts | 65° |
| 2026-05-01 12:39 | 33.49206 | -26.10994 | 30758 ft | 505 kts | 65° |
| 2026-05-01 12:40 | 33.52045 | -26.03134 | 30913 ft | 523 kts | 65° |
| 2026-05-01 12:40 | 33.54886 | -25.95249 | 31054 ft | 534 kts | 65° |
| 2026-05-01 12:41 | 33.57855 | -25.86991 | 31112 ft | 544 kts | 65° |
| 2026-05-01 12:41 | 33.60809 | -25.78747 | 31100 ft | 541 kts | 65° |
| 2026-05-01 12:42 | 33.63766 | -25.70476 | 31111 ft | 538 kts | 65° |
| 2026-05-01 12:42 | 34.19869 | -24.23133 | 31143 ft | 23774 kts | 65° |
| 2026-05-01 12:43 | 34.59374 | -23.18992 | 31218 ft | 535 kts | 64° |
| 2026-05-01 12:43 | 34.60626 | -23.14743 | 31091 ft | 537 kts | 80° |
| 2026-05-01 12:43 | 34.61147 | -23.05679 | 31109 ft | 541 kts | 92° |
| 2026-05-01 12:44 | 34.60973 | -22.96685 | 31112 ft | 544 kts | 94° |
| 2026-05-01 12:44 | 34.61173 | -22.87501 | 31096 ft | 546 kts | 83° |
| 2026-05-01 12:45 | 34.63030 | -22.78586 | 31110 ft | 544 kts | 70° |
| 2026-05-01 12:45 | 34.65865 | -22.70081 | 31111 ft | 543 kts | 65° |
| 2026-05-01 12:46 | 34.68836 | -22.61667 | 31105 ft | 542 kts | 66° |
| 2026-05-01 12:46 | 34.71678 | -22.53189 | 31108 ft | 542 kts | 68° |
| 2026-05-01 12:47 | 34.74425 | -22.44661 | 31111 ft | 542 kts | 68° |
| 2026-05-01 12:47 | 34.77149 | -22.36118 | 31106 ft | 542 kts | 68° |
| 2026-05-01 12:48 | 34.79886 | -22.27551 | 31105 ft | 543 kts | 68° |
| 2026-05-01 12:48 | 34.82625 | -22.18985 | 31107 ft | 543 kts | 68° |
| 2026-05-01 12:49 | 34.85343 | -22.10463 | 31110 ft | 544 kts | 68° |
| 2026-05-01 12:49 | 34.88075 | -22.01869 | 31105 ft | 544 kts | 68° |
| 2026-05-01 12:50 | 34.90746 | -21.93444 | 31104 ft | 544 kts | 68° |
| 2026-05-01 12:50 | 34.93464 | -21.84848 | 31106 ft | 544 kts | 68° |
| 2026-05-01 12:51 | 34.96177 | -21.76238 | 31092 ft | 544 kts | 68° |
| 2026-05-01 12:52 | 35.00232 | -21.63322 | 31116 ft | 545 kts | 68° |
| 2026-05-01 12:52 | 35.04273 | -21.50389 | 31100 ft | 542 kts | 68° |
| 2026-05-01 12:53 | 35.07831 | -21.38972 | 31094 ft | 539 kts | 68° |
| 2026-05-01 12:54 | 35.10479 | -21.30435 | 31099 ft | 537 kts | 68° |
| 2026-05-01 12:54 | 35.14440 | -21.17623 | 31103 ft | 538 kts | 69° |
| 2026-05-01 12:55 | 35.18396 | -21.04770 | 31103 ft | 540 kts | 69° |
| 2026-05-01 12:56 | 35.20988 | -20.96321 | 31106 ft | 542 kts | 69° |
| 2026-05-01 12:56 | 35.23634 | -20.87667 | 31104 ft | 544 kts | 69° |
| 2026-05-01 12:57 | 35.26280 | -20.78988 | 31109 ft | 544 kts | 69° |
| 2026-05-01 12:57 | 35.30236 | -20.65962 | 31099 ft | 544 kts | 69° |
| 2026-05-01 12:58 | 35.32845 | -20.57340 | 31100 ft | 543 kts | 69° |
| 2026-05-01 12:59 | 35.36786 | -20.44268 | 31090 ft | 543 kts | 70° |
| 2026-05-01 12:59 | 35.40696 | -20.31242 | 31101 ft | 544 kts | 70° |
| 2026-05-01 13:00 | 35.44606 | -20.18161 | 31102 ft | 545 kts | 70° |
| 2026-05-01 13:01 | 35.48491 | -20.05092 | 31102 ft | 547 kts | 70° |
| 2026-05-01 13:02 | 35.52462 | -19.92139 | 31105 ft | 548 kts | 68° |
| 2026-05-01 13:07 | 35.83389 | -18.96034 | 31099 ft | 551 kts | 68° |
| 2026-05-01 13:08 | 35.86160 | -18.87238 | 31093 ft | 551 kts | 68° |
| 2026-05-01 13:08 | 35.88926 | -18.78430 | 31098 ft | 550 kts | 68° |
| 2026-05-01 13:09 | 35.91685 | -18.69620 | 31092 ft | 550 kts | 68° |
| 2026-05-01 13:09 | 35.94436 | -18.60810 | 31101 ft | 550 kts | 68° |
| 2026-05-01 13:10 | 35.97182 | -18.51988 | 31095 ft | 550 kts | 68° |
| 2026-05-01 13:10 | 35.99921 | -18.43160 | 31097 ft | 551 kts | 68° |
| 2026-05-01 13:11 | 36.02646 | -18.34352 | 31101 ft | 550 kts | 68° |
| 2026-05-01 13:11 | 36.05373 | -18.25511 | 31094 ft | 550 kts | 68° |
| 2026-05-01 13:12 | 36.08091 | -18.16671 | 31096 ft | 551 kts | 69° |
| 2026-05-01 13:12 | 36.10809 | -18.07804 | 31091 ft | 551 kts | 69° |
| 2026-05-01 13:13 | 36.13466 | -17.99106 | 31096 ft | 552 kts | 69° |
| 2026-05-01 13:13 | 36.16171 | -17.90227 | 31097 ft | 552 kts | 69° |
| 2026-05-01 13:14 | 36.18878 | -17.81315 | 31096 ft | 553 kts | 69° |
| 2026-05-01 13:14 | 36.21575 | -17.72408 | 31099 ft | 553 kts | 69° |
| 2026-05-01 13:15 | 36.24269 | -17.63479 | 31100 ft | 553 kts | 69° |
| 2026-05-01 13:15 | 36.26958 | -17.54543 | 31097 ft | 554 kts | 69° |
| 2026-05-01 13:16 | 36.29622 | -17.45660 | 31102 ft | 554 kts | 69° |
| 2026-05-01 13:16 | 36.32299 | -17.36706 | 31105 ft | 554 kts | 69° |
| 2026-05-01 13:17 | 36.37629 | -17.18787 | 31101 ft | 553 kts | 70° |
| 2026-05-01 13:18 | 36.41610 | -17.05334 | 31103 ft | 553 kts | 70° |
| 2026-05-01 13:18 | 36.44202 | -16.96539 | 31101 ft | 553 kts | 70° |
| 2026-05-01 13:19 | 36.46837 | -16.87566 | 31106 ft | 553 kts | 70° |
| 2026-05-01 13:20 | 36.50779 | -16.74091 | 31104 ft | 553 kts | 70° |
| 2026-05-01 13:20 | 36.53401 | -16.65093 | 31101 ft | 554 kts | 70° |
| 2026-05-01 13:21 | 36.57329 | -16.51558 | 31107 ft | 556 kts | 70° |
| 2026-05-01 13:21 | 36.59945 | -16.42504 | 31104 ft | 557 kts | 70° |
| 2026-05-01 13:22 | 36.62562 | -16.33422 | 31106 ft | 557 kts | 71° |
| 2026-05-01 13:22 | 36.65170 | -16.24337 | 31107 ft | 558 kts | 71° |
| 2026-05-01 13:23 | 36.67773 | -16.15239 | 31110 ft | 558 kts | 71° |
| 2026-05-01 13:23 | 36.70371 | -16.06129 | 31107 ft | 558 kts | 71° |
| 2026-05-01 13:24 | 36.72906 | -15.97211 | 31093 ft | 558 kts | 71° |
| 2026-05-01 13:25 | 36.76775 | -15.83544 | 31110 ft | 557 kts | 71° |
| 2026-05-01 13:25 | 36.79324 | -15.74499 | 31114 ft | 557 kts | 71° |
| 2026-05-01 13:26 | 36.81884 | -15.65387 | 31112 ft | 556 kts | 71° |
| 2026-05-01 13:26 | 36.84437 | -15.56269 | 31109 ft | 556 kts | 71° |
| 2026-05-01 13:27 | 36.86978 | -15.47161 | 31115 ft | 555 kts | 71° |
| 2026-05-01 13:27 | 36.90776 | -15.33493 | 31116 ft | 555 kts | 71° |
| 2026-05-01 13:28 | 36.94557 | -15.19814 | 31118 ft | 555 kts | 72° |
| 2026-05-01 13:29 | 36.99682 | -15.01603 | 31147 ft | 556 kts | 67° |
| 2026-05-01 13:30 | 37.07312 | -14.85041 | 31120 ft | 556 kts | 56° |
| 2026-05-01 13:31 | 37.11441 | -14.76846 | 31120 ft | 557 kts | 57° |
| 2026-05-01 13:32 | 37.21616 | -14.56187 | 31115 ft | 557 kts | 57° |
| 2026-05-01 13:33 | 37.31720 | -14.35496 | 31142 ft | 556 kts | 57° |
| 2026-05-01 13:34 | 37.39782 | -14.18908 | 31123 ft | 556 kts | 57° |
| 2026-05-01 13:35 | 37.45788 | -14.06492 | 31118 ft | 556 kts | 58° |
| 2026-05-01 13:36 | 37.51726 | -13.94171 | 31122 ft | 556 kts | 58° |
| 2026-05-01 13:36 | 37.57734 | -13.81657 | 31116 ft | 556 kts | 58° |
| 2026-05-01 13:37 | 37.61083 | -13.74660 | 31123 ft | 556 kts | 58° |
| 2026-05-01 13:37 | 37.65719 | -13.64951 | 31122 ft | 556 kts | 58° |
| 2026-05-01 13:38 | 37.71692 | -13.52400 | 31127 ft | 556 kts | 58° |
| 2026-05-01 13:39 | 37.75663 | -13.44028 | 31116 ft | 555 kts | 58° |
| 2026-05-01 13:39 | 37.79621 | -13.35661 | 31125 ft | 554 kts | 58° |
| 2026-05-01 13:40 | 37.82905 | -13.28704 | 31127 ft | 554 kts | 58° |
| 2026-05-01 13:40 | 37.86849 | -13.20330 | 31134 ft | 554 kts | 58° |
| 2026-05-01 13:41 | 37.90786 | -13.11946 | 31122 ft | 554 kts | 58° |
| 2026-05-01 13:41 | 37.94715 | -13.03561 | 31140 ft | 554 kts | 58° |
| 2026-05-01 13:42 | 37.98562 | -12.95328 | 31139 ft | 554 kts | 58° |
| 2026-05-01 13:42 | 38.02480 | -12.86921 | 31138 ft | 554 kts | 58° |
| 2026-05-01 13:43 | 38.06397 | -12.78495 | 31135 ft | 554 kts | 58° |
| 2026-05-01 13:43 | 38.10306 | -12.70064 | 31137 ft | 554 kts | 58° |
| 2026-05-01 13:44 | 38.14204 | -12.61636 | 31146 ft | 553 kts | 58° |
| 2026-05-01 13:44 | 38.18090 | -12.53210 | 31141 ft | 552 kts | 59° |
| 2026-05-01 13:45 | 38.21969 | -12.44779 | 31139 ft | 552 kts | 59° |
| 2026-05-01 13:45 | 38.25842 | -12.36338 | 31135 ft | 553 kts | 59° |
| 2026-05-01 13:46 | 38.29684 | -12.27942 | 31143 ft | 552 kts | 59° |
| 2026-05-01 13:46 | 38.33541 | -12.19492 | 31147 ft | 552 kts | 59° |
| 2026-05-01 13:47 | 38.37392 | -12.11031 | 31147 ft | 552 kts | 59° |
| 2026-05-01 13:47 | 38.41238 | -12.02560 | 31138 ft | 552 kts | 59° |
| 2026-05-01 13:48 | 38.45000 | -11.94253 | 31143 ft | 551 kts | 59° |
| 2026-05-01 13:48 | 38.48828 | -11.85779 | 31150 ft | 551 kts | 59° |
| 2026-05-01 13:49 | 38.52644 | -11.77306 | 31151 ft | 551 kts | 59° |
| 2026-05-01 13:49 | 38.56460 | -11.68813 | 31158 ft | 551 kts | 59° |
| 2026-05-01 13:50 | 38.60271 | -11.60306 | 31155 ft | 552 kts | 59° |
| 2026-05-01 13:50 | 38.64081 | -11.51780 | 31161 ft | 552 kts | 59° |
| 2026-05-01 13:51 | 38.67890 | -11.43233 | 31152 ft | 553 kts | 59° |
| 2026-05-01 13:51 | 38.71690 | -11.34683 | 31159 ft | 553 kts | 59° |
| 2026-05-01 13:52 | 38.75459 | -11.26180 | 31152 ft | 552 kts | 59° |
| 2026-05-01 13:52 | 38.79241 | -11.17625 | 31157 ft | 551 kts | 59° |
| 2026-05-01 13:53 | 38.83008 | -11.09079 | 31188 ft | 551 kts | 59° |
| 2026-05-01 13:53 | 38.88571 | -10.96418 | 31162 ft | 551 kts | 59° |
| 2026-05-01 13:54 | 38.92326 | -10.87844 | 31152 ft | 551 kts | 59° |
| 2026-05-01 13:54 | 38.96074 | -10.79262 | 31166 ft | 550 kts | 59° |
| 2026-05-01 13:55 | 38.99813 | -10.70678 | 31163 ft | 551 kts | 59° |
| 2026-05-01 13:55 | 39.03545 | -10.62085 | 31164 ft | 551 kts | 59° |
| 2026-05-01 13:56 | 39.07271 | -10.53481 | 31159 ft | 550 kts | 59° |
| 2026-05-01 13:56 | 39.10990 | -10.44872 | 31203 ft | 550 kts | 59° |
| 2026-05-01 13:57 | 39.14705 | -10.36246 | 31170 ft | 551 kts | 59° |
| 2026-05-01 13:57 | 39.18420 | -10.27598 | 31170 ft | 552 kts | 60° |
| 2026-05-01 13:58 | 39.22129 | -10.18941 | 31148 ft | 552 kts | 59° |
| 2026-05-01 13:58 | 39.25829 | -10.10278 | 31165 ft | 551 kts | 60° |
| 2026-05-01 13:59 | 39.29519 | -10.01617 | 31170 ft | 550 kts | 60° |
| 2026-05-01 13:59 | 39.33118 | -9.93144 | 31169 ft | 550 kts | 60° |
| 2026-05-01 14:00 | 39.36790 | -9.84475 | 31168 ft | 550 kts | 60° |
| 2026-05-01 14:00 | 39.40437 | -9.75841 | 31190 ft | 549 kts | 60° |
| 2026-05-01 14:01 | 39.44090 | -9.67172 | 31170 ft | 548 kts | 60° |
| 2026-05-01 14:01 | 39.47728 | -9.58511 | 31166 ft | 547 kts | 60° |
| 2026-05-01 14:02 | 39.51353 | -9.49858 | 31166 ft | 546 kts | 60° |
| 2026-05-01 14:02 | 39.54965 | -9.41211 | 31160 ft | 545 kts | 60° |
| 2026-05-01 14:03 | 39.58562 | -9.32574 | 31166 ft | 544 kts | 60° |
| 2026-05-01 14:03 | 39.62149 | -9.23939 | 31166 ft | 544 kts | 60° |
| 2026-05-01 14:04 | 39.65730 | -9.15294 | 31162 ft | 544 kts | 60° |
| 2026-05-01 14:04 | 39.68701 | -9.08106 | 31162 ft | 544 kts | 60° |
| 2026-05-01 14:05 | 39.72708 | -8.98378 | 31152 ft | 541 kts | 61° |
| 2026-05-01 14:05 | 39.76244 | -8.89768 | 31152 ft | 538 kts | 61° |
| 2026-05-01 14:06 | 39.79755 | -8.81198 | 31157 ft | 537 kts | 61° |
| 2026-05-01 14:06 | 39.83256 | -8.72628 | 31160 ft | 536 kts | 61° |
| 2026-05-01 14:07 | 39.86749 | -8.64052 | 31150 ft | 536 kts | 61° |
| 2026-05-01 14:08 | 39.91973 | -8.51179 | 31133 ft | 536 kts | 61° |
| 2026-05-01 14:08 | 39.95411 | -8.42549 | 31135 ft | 536 kts | 62° |
| 2026-05-01 14:09 | 39.98723 | -8.33851 | 31126 ft | 535 kts | 63° |
| 2026-05-01 14:09 | 40.01775 | -8.25043 | 31111 ft | 532 kts | 67° |
| 2026-05-01 14:10 | 40.04366 | -8.16022 | 31059 ft | 530 kts | 71° |
| 2026-05-01 14:10 | 40.06507 | -8.06832 | 31044 ft | 529 kts | 75° |
| 2026-05-01 14:11 | 40.08315 | -7.97715 | 31031 ft | 528 kts | 77° |
| 2026-05-01 14:11 | 40.10272 | -7.88547 | 31118 ft | 524 kts | 60° |
| 2026-05-01 14:11 | 40.12372 | -7.84672 | 31128 ft | 525 kts | 43° |
| 2026-05-01 14:12 | 40.17867 | -7.78368 | 31112 ft | 524 kts | 35° |
| 2026-05-01 14:12 | 40.23181 | -7.71849 | 31138 ft | 527 kts | 49° |
| 2026-05-01 14:13 | 40.26605 | -7.65252 | 31122 ft | 528 kts | 59° |
| 2026-05-01 14:13 | 40.30449 | -7.55244 | 31100 ft | 525 kts | 63° |
| 2026-05-01 14:14 | 40.33612 | -7.46647 | 31113 ft | 522 kts | 63° |
| 2026-05-01 14:14 | 40.36871 | -7.38151 | 31111 ft | 521 kts | 62° |
| 2026-05-01 14:15 | 40.40184 | -7.29681 | 31123 ft | 523 kts | 62° |
| 2026-05-01 14:15 | 40.43502 | -7.21173 | 31110 ft | 524 kts | 62° |
| 2026-05-01 14:16 | 40.46809 | -7.12642 | 31113 ft | 525 kts | 62° |
| 2026-05-01 14:16 | 40.50089 | -7.04144 | 31121 ft | 524 kts | 62° |
| 2026-05-01 14:17 | 40.53301 | -6.95797 | 31131 ft | 524 kts | 62° |
| 2026-05-01 14:17 | 40.56585 | -6.87244 | 31114 ft | 524 kts | 62° |
| 2026-05-01 14:18 | 40.59838 | -6.78684 | 31126 ft | 522 kts | 65° |
| 2026-05-01 14:18 | 40.61035 | -6.74184 | 31124 ft | 522 kts | 76° |
| 2026-05-01 14:18 | 40.61506 | -6.71019 | 31128 ft | 521 kts | 83° |
| 2026-05-01 14:19 | 40.61752 | -6.64738 | 31128 ft | 518 kts | 96° |
| 2026-05-01 14:19 | 40.61343 | -6.60046 | 31121 ft | 516 kts | 100° |
| 2026-05-01 14:19 | 40.60341 | -6.50693 | 31134 ft | 517 kts | 99° |
| 2026-05-01 14:20 | 40.58994 | -6.36604 | 31113 ft | 517 kts | 98° |
| 2026-05-01 14:21 | 40.58118 | -6.27228 | 31120 ft | 517 kts | 99° |
| 2026-05-01 14:21 | 40.57198 | -6.17852 | 31125 ft | 517 kts | 99° |
| 2026-05-01 14:22 | 40.55805 | -6.03813 | 31141 ft | 516 kts | 99° |
| 2026-05-01 14:22 | 40.54895 | -5.94647 | 31128 ft | 515 kts | 99° |
| 2026-05-01 14:23 | 40.54460 | -5.85314 | 31131 ft | 512 kts | 80° |
| 2026-05-01 14:23 | 40.55478 | -5.80843 | 31144 ft | 510 kts | 63° |
| 2026-05-01 14:23 | 40.57270 | -5.76841 | 31143 ft | 508 kts | 50° |
| 2026-05-01 14:24 | 40.59696 | -5.73535 | 31129 ft | 500 kts | 36° |
| 2026-05-01 14:24 | 40.62403 | -5.70646 | 31135 ft | 501 kts | 35° |
| 2026-05-01 14:24 | 40.67847 | -5.64853 | 31132 ft | 505 kts | 36° |
| 2026-05-01 14:25 | 40.72266 | -5.60026 | 31126 ft | 506 kts | 37° |
| 2026-05-01 14:25 | 40.77653 | -5.54038 | 31136 ft | 506 kts | 37° |
| 2026-05-01 14:26 | 40.85715 | -5.45032 | 31158 ft | 505 kts | 37° |
| 2026-05-01 14:27 | 40.91073 | -5.39042 | 31154 ft | 504 kts | 37° |
| 2026-05-01 14:27 | 40.96391 | -5.33035 | 31141 ft | 501 kts | 42° |
| 2026-05-01 14:28 | 40.99880 | -5.25225 | 30836 ft | 494 kts | 75° |
| 2026-05-01 14:28 | 41.00351 | -5.20756 | 30288 ft | 491 kts | 91° |
| 2026-05-01 14:28 | 41.00094 | -5.16288 | 29718 ft | 483 kts | 97° |
| 2026-05-01 14:28 | 40.99727 | -5.11897 | 29218 ft | 478 kts | 98° |
| 2026-05-01 14:29 | 40.99368 | -5.07540 | 28743 ft | 474 kts | 97° |
| 2026-05-01 14:29 | 40.99032 | -5.03224 | 28281 ft | 469 kts | 97° |
| 2026-05-01 14:30 | 40.98147 | -4.90747 | 26941 ft | 457 kts | 97° |
| 2026-05-01 14:30 | 40.97859 | -4.86585 | 26504 ft | 453 kts | 97° |
| 2026-05-01 14:30 | 40.97572 | -4.82450 | 26072 ft | 449 kts | 97° |
| 2026-05-01 14:31 | 40.96998 | -4.74290 | 25216 ft | 442 kts | 97° |
| 2026-05-01 14:31 | 40.96714 | -4.70282 | 25058 ft | 432 kts | 97° |
| 2026-05-01 14:31 | 40.96435 | -4.66370 | 24869 ft | 423 kts | 97° |
| 2026-05-01 14:31 | 40.96029 | -4.62586 | 24666 ft | 408 kts | 109° |
| 2026-05-01 14:32 | 40.94907 | -4.59228 | 24408 ft | 394 kts | 128° |
| 2026-05-01 14:32 | 40.93218 | -4.56429 | 24010 ft | 387 kts | 134° |
| 2026-05-01 14:32 | 40.91454 | -4.53742 | 23579 ft | 386 kts | 134° |
| 2026-05-01 14:32 | 40.89697 | -4.51077 | 23150 ft | 384 kts | 134° |
| 2026-05-01 14:33 | 40.87960 | -4.48420 | 22761 ft | 381 kts | 134° |
| 2026-05-01 14:33 | 40.86236 | -4.45763 | 22327 ft | 379 kts | 133° |
| 2026-05-01 14:33 | 40.84545 | -4.43139 | 22084 ft | 371 kts | 133° |
| 2026-05-01 14:33 | 40.82883 | -4.40552 | 21583 ft | 372 kts | 133° |
| 2026-05-01 14:34 | 40.81199 | -4.37933 | 21011 ft | 374 kts | 133° |
| 2026-05-01 14:34 | 40.79528 | -4.35332 | 20770 ft | 367 kts | 133° |
| 2026-05-01 14:34 | 40.77902 | -4.32803 | 20653 ft | 356 kts | 134° |
| 2026-05-01 14:34 | 40.76349 | -4.30338 | 20555 ft | 342 kts | 128° |
| 2026-05-01 14:35 | 40.75348 | -4.27509 | 20195 ft | 344 kts | 103° |
| 2026-05-01 14:35 | 40.75271 | -4.24375 | 19865 ft | 342 kts | 81° |
| 2026-05-01 14:35 | 40.75957 | -4.21421 | 19634 ft | 334 kts | 62° |
| 2026-05-01 14:35 | 40.77170 | -4.18854 | 19344 ft | 329 kts | 55° |
| 2026-05-01 14:36 | 40.78505 | -4.16348 | 18696 ft | 339 kts | 54° |
| 2026-05-01 14:36 | 40.79874 | -4.13838 | 18404 ft | 334 kts | 54° |
| 2026-05-01 14:36 | 40.81209 | -4.11381 | 18238 ft | 324 kts | 54° |
| 2026-05-01 14:36 | 40.82474 | -4.09028 | 17862 ft | 326 kts | 54° |
| 2026-05-01 14:37 | 40.83773 | -4.06592 | 17526 ft | 323 kts | 54° |
| 2026-05-01 14:37 | 40.85044 | -4.04191 | 17325 ft | 314 kts | 55° |
| 2026-05-01 14:37 | 40.86278 | -4.01854 | 17121 ft | 306 kts | 55° |
| 2026-05-01 14:37 | 40.87430 | -3.99665 | 16839 ft | 301 kts | 55° |
| 2026-05-01 14:38 | 40.88622 | -3.97398 | 16466 ft | 300 kts | 55° |
| 2026-05-01 14:38 | 40.89858 | -3.95043 | 16057 ft | 299 kts | 55° |
| 2026-05-01 14:38 | 40.91038 | -3.92792 | 15722 ft | 296 kts | 56° |
| 2026-05-01 14:38 | 40.92209 | -3.90556 | 15353 ft | 296 kts | 56° |
| 2026-05-01 14:39 | 40.93377 | -3.88326 | 15033 ft | 293 kts | 56° |
| 2026-05-01 14:39 | 40.94529 | -3.86124 | 14691 ft | 291 kts | 56° |
| 2026-05-01 14:39 | 40.95686 | -3.83910 | 14292 ft | 292 kts | 56° |
| 2026-05-01 14:39 | 40.96834 | -3.81710 | 14004 ft | 289 kts | 56° |
| 2026-05-01 14:40 | 40.97721 | -3.79371 | 13460 ft | 286 kts | 81° |
| 2026-05-01 14:40 | 40.97778 | -3.76772 | 12927 ft | 280 kts | 98° |
| 2026-05-01 14:40 | 40.97622 | -3.74208 | 12517 ft | 281 kts | 96° |
| 2026-05-01 14:40 | 40.97488 | -3.71663 | 12160 ft | 280 kts | 97° |
| 2026-05-01 14:41 | 40.97356 | -3.69103 | 11817 ft | 278 kts | 97° |
| 2026-05-01 14:41 | 40.97201 | -3.66570 | 11482 ft | 273 kts | 103° |
| 2026-05-01 14:41 | 40.96709 | -3.64181 | 11201 ft | 267 kts | 112° |
| 2026-05-01 14:41 | 40.96082 | -3.61870 | 11178 ft | 268 kts | 114° |
| 2026-05-01 14:42 | 40.95282 | -3.59675 | 11132 ft | 263 kts | 134° |
| 2026-05-01 14:42 | 40.93872 | -3.58233 | 11174 ft | 256 kts | 161° |
| 2026-05-01 14:42 | 40.92166 | -3.57665 | 11156 ft | 252 kts | 181° |
| 2026-05-01 14:42 | 40.90422 | -3.57647 | 11169 ft | 249 kts | 183° |
| 2026-05-01 14:43 | 40.88710 | -3.57653 | 11145 ft | 244 kts | 183° |
| 2026-05-01 14:43 | 40.87012 | -3.57661 | 11146 ft | 243 kts | 182° |
| 2026-05-01 14:43 | 40.85331 | -3.57660 | 11133 ft | 240 kts | 182° |
| 2026-05-01 14:43 | 40.83673 | -3.57655 | 10936 ft | 237 kts | 183° |
| 2026-05-01 14:44 | 40.82005 | -3.57658 | 10375 ft | 247 kts | 184° |
| 2026-05-01 14:44 | 40.78495 | -3.57707 | 8958 ft | 250 kts | 182° |
| 2026-05-01 14:44 | 40.76781 | -3.57675 | 8422 ft | 243 kts | 181° |
| 2026-05-01 14:45 | 40.75113 | -3.57654 | 7918 ft | 236 kts | 182° |
| 2026-05-01 14:45 | 40.71910 | -3.57630 | 6844 ft | 225 kts | 180° |
| 2026-05-01 14:45 | 40.70390 | -3.57617 | 6506 ft | 213 kts | 180° |
| 2026-05-01 14:46 | 40.68925 | -3.57608 | 5926 ft | 211 kts | 180° |
| 2026-05-01 14:46 | 40.65896 | -3.57585 | 4597 ft | 223 kts | 180° |
| 2026-05-01 14:46 | 40.64340 | -3.57571 | 4339 ft | 224 kts | 180° |
| 2026-05-01 14:47 | 40.62760 | -3.57557 | 4091 ft | 228 kts | 180° |
| 2026-05-01 14:47 | 40.61192 | -3.57548 | 3786 ft | 220 kts | 180° |
| 2026-05-01 14:47 | 40.59716 | -3.57531 | 3467 ft | 203 kts | 181° |
| 2026-05-01 14:48 | 40.57127 | -3.57516 | 2926 ft | 166 kts | 181° |
| 2026-05-01 14:48 | 40.56072 | -3.57506 | 2741 ft | 144 kts | 181° |
| 2026-05-01 14:48 | 40.54168 | -3.57468 | 2318 ft | 129 kts | 181° |
| 2026-05-01 14:49 | 40.52286 | -3.57468 | 2048 ft | 133 kts | 181° |
| 2026-05-01 14:49 | 40.50744 | -3.57462 | 2000 ft | 72 kts | 180° |
| 2026-05-01 14:50 | 40.50221 | -3.57459 | 1993 ft | 52 kts | 180° |
| 2026-05-01 14:50 | 40.49861 | -3.57284 | 1996 ft | 2 kts | 87° |
| 2026-05-01 14:51 | 40.49804 | -3.57238 | 1992 ft | 18 kts | 173° |
| 2026-05-01 14:51 | 40.49739 | -3.57089 | 1988 ft | 7 kts | 91° |
| 2026-05-01 14:52 | 40.49745 | -3.57027 | 1988 ft | 2 kts | 116° |
| 2026-05-01 14:52 | 40.49720 | -3.57013 | 1987 ft | 8 kts | 163° |
| 2026-05-01 14:52 | 40.49666 | -3.56960 | 1981 ft | 3 kts | 92° |
| 2026-05-01 14:53 | 40.49666 | -3.56917 | 1978 ft | 4 kts | 89° |
| 2026-05-01 14:53 | 40.49667 | -3.56876 | 1977 ft | 3 kts | 89° |
| 2026-05-01 14:53 | 40.49667 | -3.56863 | 1977 ft | 1 kts | 89° |
| 2026-05-01 14:53 | 40.49667 | -3.56862 | 1977 ft | 0 kts | 89° |